<?xml version="1.0" encoding="UTF-8" standalone="no" ?>
<gpx xmlns="http://www.topografix.com/GPX/1/1" creator="MapSource 6.15.3" version="1.1" xmlns:xsi="http://www.w3.org/2001/XMLSchema-instance" xsi:schemaLocation="http://www.topografix.com/GPX/1/1 http://www.topografix.com/GPX/1/1/gpx.xsd">

  <metadata>
    <link href="http://www.garmin.com">
      <text>Garmin International</text>
    </link>
    <time>2010-03-29T21:12:05Z</time>
    <bounds maxlat="45.2328432" maxlon="7.6635677" minlat="45.0946411" minlon="7.5630735"/>
  </metadata>

  <wpt lat="45.2163400" lon="7.5643789">
    <time>2010-03-29T20:55:02Z</time>
    <name>Fossil Trunk</name>
    <cmt>28-MAR-10 15:08:19</cmt>
    <desc>28-MAR-10 15:08:19</desc>
    <sym>Block, Red</sym>
    <extensions>
      <gpxx:WaypointExtension xmlns:gpxx="http://www.garmin.com/xmlschemas/GpxExtensions/v3">
        <gpxx:DisplayMode>SymbolAndName</gpxx:DisplayMode>
      </gpxx:WaypointExtension>
    </extensions>
  </wpt>

  <trk>
    <name>Ride to Fossil Forest</name>
    <extensions>
      <gpxx:TrackExtension xmlns:gpxx="http://www.garmin.com/xmlschemas/GpxExtensions/v3">
        <gpxx:DisplayColor>Blue</gpxx:DisplayColor>
      </gpxx:TrackExtension>
    </extensions>
    <trkseg>
      <trkpt lat="45.0950498" lon="7.6543691">
        <ele>225.5665283</ele>
        <time>2010-03-28T10:36:47Z</time>
      </trkpt>
      <trkpt lat="45.0951367" lon="7.6549958">
        <ele>225.5665283</ele>
        <time>2010-03-28T10:36:59Z</time>
      </trkpt>
      <trkpt lat="45.0951519" lon="7.6551803">
        <ele>225.5665283</ele>
        <time>2010-03-28T10:37:02Z</time>
      </trkpt>
      <trkpt lat="45.0951620" lon="7.6554457">
        <ele>225.5665283</ele>
        <time>2010-03-28T10:37:06Z</time>
      </trkpt>
      <trkpt lat="45.0952611" lon="7.6562537">
        <ele>225.5665283</ele>
        <time>2010-03-28T10:37:23Z</time>
      </trkpt>
      <trkpt lat="45.0952555" lon="7.6562823">
        <ele>225.5665283</ele>
        <time>2010-03-28T10:37:24Z</time>
      </trkpt>
      <trkpt lat="45.0952489" lon="7.6564580">
        <ele>225.5665283</ele>
        <time>2010-03-28T10:37:59Z</time>
      </trkpt>
      <trkpt lat="45.0952327" lon="7.6570674">
        <ele>225.5665283</ele>
        <time>2010-03-28T10:38:16Z</time>
      </trkpt>
      <trkpt lat="45.0952416" lon="7.6570959">
        <ele>225.5665283</ele>
        <time>2010-03-28T10:38:17Z</time>
      </trkpt>
      <trkpt lat="45.0954457" lon="7.6572667">
        <ele>226.0471191</ele>
        <time>2010-03-28T10:38:26Z</time>
      </trkpt>
      <trkpt lat="45.0960826" lon="7.6576766">
        <ele>226.5278320</ele>
        <time>2010-03-28T10:38:49Z</time>
      </trkpt>
      <trkpt lat="45.0964451" lon="7.6579771">
        <ele>227.4891357</ele>
        <time>2010-03-28T10:39:08Z</time>
      </trkpt>
      <trkpt lat="45.0975321" lon="7.6586647">
        <ele>227.0085449</ele>
        <time>2010-03-28T10:39:32Z</time>
      </trkpt>
      <trkpt lat="45.0983888" lon="7.6592464">
        <ele>226.0471191</ele>
        <time>2010-03-28T10:39:57Z</time>
      </trkpt>
      <trkpt lat="45.0988464" lon="7.6595565">
        <ele>226.5278320</ele>
        <time>2010-03-28T10:40:14Z</time>
      </trkpt>
      <trkpt lat="45.0999239" lon="7.6603009">
        <ele>226.5278320</ele>
        <time>2010-03-28T10:40:37Z</time>
      </trkpt>
      <trkpt lat="45.1010446" lon="7.6610125">
        <ele>226.5278320</ele>
        <time>2010-03-28T10:41:00Z</time>
      </trkpt>
      <trkpt lat="45.1019328" lon="7.6616192">
        <ele>227.0085449</ele>
        <time>2010-03-28T10:41:23Z</time>
      </trkpt>
      <trkpt lat="45.1023127" lon="7.6618410">
        <ele>227.4891357</ele>
        <time>2010-03-28T10:41:40Z</time>
      </trkpt>
      <trkpt lat="45.1026214" lon="7.6620761">
        <ele>227.9697266</ele>
        <time>2010-03-28T10:42:00Z</time>
      </trkpt>
      <trkpt lat="45.1027685" lon="7.6621811">
        <ele>228.9311523</ele>
        <time>2010-03-28T10:42:07Z</time>
      </trkpt>
      <trkpt lat="45.1033028" lon="7.6625953">
        <ele>228.4504395</ele>
        <time>2010-03-28T10:42:24Z</time>
      </trkpt>
      <trkpt lat="45.1042793" lon="7.6630123">
        <ele>228.9311523</ele>
        <time>2010-03-28T10:42:44Z</time>
      </trkpt>
      <trkpt lat="45.1048235" lon="7.6633182">
        <ele>228.4504395</ele>
        <time>2010-03-28T10:42:54Z</time>
      </trkpt>
      <trkpt lat="45.1050135" lon="7.6633336">
        <ele>227.9697266</ele>
        <time>2010-03-28T10:43:08Z</time>
      </trkpt>
      <trkpt lat="45.1052527" lon="7.6633697">
        <ele>228.4504395</ele>
        <time>2010-03-28T10:44:01Z</time>
      </trkpt>
      <trkpt lat="45.1053947" lon="7.6633530">
        <ele>228.4504395</ele>
        <time>2010-03-28T10:44:05Z</time>
      </trkpt>
      <trkpt lat="45.1055459" lon="7.6633924">
        <ele>228.9311523</ele>
        <time>2010-03-28T10:44:09Z</time>
      </trkpt>
      <trkpt lat="45.1057188" lon="7.6633317">
        <ele>228.9311523</ele>
        <time>2010-03-28T10:44:13Z</time>
      </trkpt>
      <trkpt lat="45.1065672" lon="7.6632380">
        <ele>228.9311523</ele>
        <time>2010-03-28T10:44:33Z</time>
      </trkpt>
      <trkpt lat="45.1070201" lon="7.6633028">
        <ele>228.9311523</ele>
        <time>2010-03-28T10:44:48Z</time>
      </trkpt>
      <trkpt lat="45.1081024" lon="7.6633643">
        <ele>229.4117432</ele>
        <time>2010-03-28T10:45:14Z</time>
      </trkpt>
      <trkpt lat="45.1090066" lon="7.6634703">
        <ele>229.4117432</ele>
        <time>2010-03-28T10:45:33Z</time>
      </trkpt>
      <trkpt lat="45.1104623" lon="7.6635218">
        <ele>230.3730469</ele>
        <time>2010-03-28T10:46:02Z</time>
      </trkpt>
      <trkpt lat="45.1109148" lon="7.6635677">
        <ele>229.4117432</ele>
        <time>2010-03-28T10:46:23Z</time>
      </trkpt>
      <trkpt lat="45.1113933" lon="7.6635428">
        <ele>230.3730469</ele>
        <time>2010-03-28T10:46:43Z</time>
      </trkpt>
      <trkpt lat="45.1129421" lon="7.6631640">
        <ele>229.4117432</ele>
        <time>2010-03-28T10:47:07Z</time>
      </trkpt>
      <trkpt lat="45.1150042" lon="7.6624262">
        <ele>228.9311523</ele>
        <time>2010-03-28T10:47:37Z</time>
      </trkpt>
      <trkpt lat="45.1170508" lon="7.6614398">
        <ele>228.4504395</ele>
        <time>2010-03-28T10:48:07Z</time>
      </trkpt>
      <trkpt lat="45.1187494" lon="7.6608508">
        <ele>226.5278320</ele>
        <time>2010-03-28T10:48:32Z</time>
      </trkpt>
      <trkpt lat="45.1207721" lon="7.6613461">
        <ele>226.0471191</ele>
        <time>2010-03-28T10:49:00Z</time>
      </trkpt>
      <trkpt lat="45.1221638" lon="7.6610867">
        <ele>226.0471191</ele>
        <time>2010-03-28T10:49:22Z</time>
      </trkpt>
      <trkpt lat="45.1232946" lon="7.6606407">
        <ele>226.0471191</ele>
        <time>2010-03-28T10:49:46Z</time>
      </trkpt>
      <trkpt lat="45.1245906" lon="7.6601139">
        <ele>229.4117432</ele>
        <time>2010-03-28T10:50:10Z</time>
      </trkpt>
      <trkpt lat="45.1255793" lon="7.6597090">
        <ele>232.7764893</ele>
        <time>2010-03-28T10:50:30Z</time>
      </trkpt>
      <trkpt lat="45.1270448" lon="7.6591109">
        <ele>233.2570801</ele>
        <time>2010-03-28T10:50:57Z</time>
      </trkpt>
      <trkpt lat="45.1279560" lon="7.6587119">
        <ele>230.3730469</ele>
        <time>2010-03-28T10:51:11Z</time>
      </trkpt>
      <trkpt lat="45.1292676" lon="7.6579720">
        <ele>228.4504395</ele>
        <time>2010-03-28T10:51:32Z</time>
      </trkpt>
      <trkpt lat="45.1293336" lon="7.6577533">
        <ele>228.9311523</ele>
        <time>2010-03-28T10:51:57Z</time>
      </trkpt>
      <trkpt lat="45.1293077" lon="7.6576576">
        <ele>228.4504395</ele>
        <time>2010-03-28T10:52:02Z</time>
      </trkpt>
      <trkpt lat="45.1293331" lon="7.6575747">
        <ele>227.9697266</ele>
        <time>2010-03-28T10:52:04Z</time>
      </trkpt>
      <trkpt lat="45.1294097" lon="7.6574140">
        <ele>228.4504395</ele>
        <time>2010-03-28T10:52:07Z</time>
      </trkpt>
      <trkpt lat="45.1298667" lon="7.6562563">
        <ele>228.4504395</ele>
        <time>2010-03-28T10:52:32Z</time>
      </trkpt>
      <trkpt lat="45.1303275" lon="7.6551838">
        <ele>228.9311523</ele>
        <time>2010-03-28T10:52:56Z</time>
      </trkpt>
      <trkpt lat="45.1304378" lon="7.6550264">
        <ele>229.4117432</ele>
        <time>2010-03-28T10:53:00Z</time>
      </trkpt>
      <trkpt lat="45.1308950" lon="7.6538029">
        <ele>230.8537598</ele>
        <time>2010-03-28T10:53:24Z</time>
      </trkpt>
      <trkpt lat="45.1307489" lon="7.6536243">
        <ele>230.8537598</ele>
        <time>2010-03-28T10:53:29Z</time>
      </trkpt>
      <trkpt lat="45.1300529" lon="7.6530744">
        <ele>230.8537598</ele>
        <time>2010-03-28T10:53:47Z</time>
      </trkpt>
      <trkpt lat="45.1301177" lon="7.6528488">
        <ele>229.4117432</ele>
        <time>2010-03-28T10:53:53Z</time>
      </trkpt>
      <trkpt lat="45.1307497" lon="7.6526085">
        <ele>229.4117432</ele>
        <time>2010-03-28T10:54:11Z</time>
      </trkpt>
      <trkpt lat="45.1313428" lon="7.6523235">
        <ele>229.8923340</ele>
        <time>2010-03-28T10:54:29Z</time>
      </trkpt>
      <trkpt lat="45.1320654" lon="7.6519521">
        <ele>231.3343506</ele>
        <time>2010-03-28T10:54:47Z</time>
      </trkpt>
      <trkpt lat="45.1321360" lon="7.6519210">
        <ele>231.3343506</ele>
        <time>2010-03-28T10:54:49Z</time>
      </trkpt>
      <trkpt lat="45.1325518" lon="7.6517370">
        <ele>230.8537598</ele>
        <time>2010-03-28T10:55:00Z</time>
      </trkpt>
      <trkpt lat="45.1333034" lon="7.6513888">
        <ele>231.8149414</ele>
        <time>2010-03-28T10:55:19Z</time>
      </trkpt>
      <trkpt lat="45.1337390" lon="7.6512209">
        <ele>232.2957764</ele>
        <time>2010-03-28T10:55:38Z</time>
      </trkpt>
      <trkpt lat="45.1337508" lon="7.6512166">
        <ele>232.7764893</ele>
        <time>2010-03-28T10:56:43Z</time>
      </trkpt>
      <trkpt lat="45.1340040" lon="7.6510610">
        <ele>233.2570801</ele>
        <time>2010-03-28T11:00:32Z</time>
      </trkpt>
      <trkpt lat="45.1345350" lon="7.6508239">
        <ele>233.7376709</ele>
        <time>2010-03-28T11:00:53Z</time>
      </trkpt>
      <trkpt lat="45.1353169" lon="7.6504405">
        <ele>233.7376709</ele>
        <time>2010-03-28T11:01:17Z</time>
      </trkpt>
      <trkpt lat="45.1363113" lon="7.6499917">
        <ele>235.1796875</ele>
        <time>2010-03-28T11:01:43Z</time>
      </trkpt>
      <trkpt lat="45.1371566" lon="7.6496223">
        <ele>236.6217041</ele>
        <time>2010-03-28T11:02:06Z</time>
      </trkpt>
      <trkpt lat="45.1379191" lon="7.6492536">
        <ele>237.5828857</ele>
        <time>2010-03-28T11:02:26Z</time>
      </trkpt>
      <trkpt lat="45.1381534" lon="7.6490682">
        <ele>237.1022949</ele>
        <time>2010-03-28T11:02:33Z</time>
      </trkpt>
      <trkpt lat="45.1387259" lon="7.6484226">
        <ele>237.1022949</ele>
        <time>2010-03-28T11:02:54Z</time>
      </trkpt>
      <trkpt lat="45.1388386" lon="7.6485508">
        <ele>238.0635986</ele>
        <time>2010-03-28T11:02:58Z</time>
      </trkpt>
      <trkpt lat="45.1394899" lon="7.6494695">
        <ele>237.1022949</ele>
        <time>2010-03-28T11:03:16Z</time>
      </trkpt>
      <trkpt lat="45.1395628" lon="7.6495663">
        <ele>237.1022949</ele>
        <time>2010-03-28T11:03:18Z</time>
      </trkpt>
      <trkpt lat="45.1397624" lon="7.6497542">
        <ele>237.5828857</ele>
        <time>2010-03-28T11:03:23Z</time>
      </trkpt>
      <trkpt lat="45.1402465" lon="7.6500733">
        <ele>238.0635986</ele>
        <time>2010-03-28T11:03:38Z</time>
      </trkpt>
      <trkpt lat="45.1412227" lon="7.6505681">
        <ele>239.0249023</ele>
        <time>2010-03-28T11:04:07Z</time>
      </trkpt>
      <trkpt lat="45.1418354" lon="7.6507287">
        <ele>239.9862061</ele>
        <time>2010-03-28T11:04:25Z</time>
      </trkpt>
      <trkpt lat="45.1423775" lon="7.6508112">
        <ele>239.9862061</ele>
        <time>2010-03-28T11:04:40Z</time>
      </trkpt>
      <trkpt lat="45.1424556" lon="7.6515710">
        <ele>239.9862061</ele>
        <time>2010-03-28T11:04:56Z</time>
      </trkpt>
      <trkpt lat="45.1426571" lon="7.6521110">
        <ele>239.9862061</ele>
        <time>2010-03-28T11:05:09Z</time>
      </trkpt>
      <trkpt lat="45.1425363" lon="7.6522581">
        <ele>239.9862061</ele>
        <time>2010-03-28T11:05:15Z</time>
      </trkpt>
      <trkpt lat="45.1416706" lon="7.6530927">
        <ele>239.5054932</ele>
        <time>2010-03-28T11:05:42Z</time>
      </trkpt>
      <trkpt lat="45.1415842" lon="7.6532582">
        <ele>238.5443115</ele>
        <time>2010-03-28T11:05:46Z</time>
      </trkpt>
      <trkpt lat="45.1418439" lon="7.6536510">
        <ele>238.5443115</ele>
        <time>2010-03-28T11:05:56Z</time>
      </trkpt>
      <trkpt lat="45.1419744" lon="7.6536429">
        <ele>239.0249023</ele>
        <time>2010-03-28T11:05:59Z</time>
      </trkpt>
      <trkpt lat="45.1421468" lon="7.6535696">
        <ele>239.5054932</ele>
        <time>2010-03-28T11:06:03Z</time>
      </trkpt>
      <trkpt lat="45.1427965" lon="7.6530846">
        <ele>239.9862061</ele>
        <time>2010-03-28T11:06:20Z</time>
      </trkpt>
      <trkpt lat="45.1428616" lon="7.6532650">
        <ele>239.9862061</ele>
        <time>2010-03-28T11:06:25Z</time>
      </trkpt>
      <trkpt lat="45.1428687" lon="7.6536320">
        <ele>239.9862061</ele>
        <time>2010-03-28T11:06:31Z</time>
      </trkpt>
      <trkpt lat="45.1428616" lon="7.6538102">
        <ele>239.5054932</ele>
        <time>2010-03-28T11:06:34Z</time>
      </trkpt>
      <trkpt lat="45.1429853" lon="7.6553715">
        <ele>239.9862061</ele>
        <time>2010-03-28T11:06:56Z</time>
      </trkpt>
      <trkpt lat="45.1429923" lon="7.6554134">
        <ele>239.9862061</ele>
        <time>2010-03-28T11:06:57Z</time>
      </trkpt>
      <trkpt lat="45.1435072" lon="7.6554237">
        <ele>240.9476318</ele>
        <time>2010-03-28T11:07:14Z</time>
      </trkpt>
      <trkpt lat="45.1444147" lon="7.6552996">
        <ele>241.4282227</ele>
        <time>2010-03-28T11:07:38Z</time>
      </trkpt>
      <trkpt lat="45.1446306" lon="7.6552814">
        <ele>241.4282227</ele>
        <time>2010-03-28T11:07:43Z</time>
      </trkpt>
      <trkpt lat="45.1447929" lon="7.6550064">
        <ele>241.4282227</ele>
        <time>2010-03-28T11:07:51Z</time>
      </trkpt>
      <trkpt lat="45.1448258" lon="7.6539038">
        <ele>241.9089355</ele>
        <time>2010-03-28T11:08:11Z</time>
      </trkpt>
      <trkpt lat="45.1448621" lon="7.6528146">
        <ele>242.3896484</ele>
        <time>2010-03-28T11:08:27Z</time>
      </trkpt>
      <trkpt lat="45.1451451" lon="7.6520603">
        <ele>243.3508301</ele>
        <time>2010-03-28T11:08:40Z</time>
      </trkpt>
      <trkpt lat="45.1451694" lon="7.6520018">
        <ele>242.8702393</ele>
        <time>2010-03-28T11:08:41Z</time>
      </trkpt>
      <trkpt lat="45.1459190" lon="7.6505129">
        <ele>240.9476318</ele>
        <time>2010-03-28T11:09:08Z</time>
      </trkpt>
      <trkpt lat="45.1464720" lon="7.6493975">
        <ele>241.9089355</ele>
        <time>2010-03-28T11:09:26Z</time>
      </trkpt>
      <trkpt lat="45.1468582" lon="7.6486197">
        <ele>245.7541504</ele>
        <time>2010-03-28T11:09:42Z</time>
      </trkpt>
      <trkpt lat="45.1469536" lon="7.6484341">
        <ele>246.2348633</ele>
        <time>2010-03-28T11:09:46Z</time>
      </trkpt>
      <trkpt lat="45.1470134" lon="7.6483422">
        <ele>245.7541504</ele>
        <time>2010-03-28T11:09:48Z</time>
      </trkpt>
      <trkpt lat="45.1471500" lon="7.6482110">
        <ele>245.7541504</ele>
        <time>2010-03-28T11:09:52Z</time>
      </trkpt>
      <trkpt lat="45.1473880" lon="7.6481015">
        <ele>246.2348633</ele>
        <time>2010-03-28T11:09:58Z</time>
      </trkpt>
      <trkpt lat="45.1480704" lon="7.6479778">
        <ele>246.2348633</ele>
        <time>2010-03-28T11:10:20Z</time>
      </trkpt>
      <trkpt lat="45.1482601" lon="7.6479454">
        <ele>246.2348633</ele>
        <time>2010-03-28T11:10:41Z</time>
      </trkpt>
      <trkpt lat="45.1486871" lon="7.6478769">
        <ele>246.7154541</ele>
        <time>2010-03-28T11:11:04Z</time>
      </trkpt>
      <trkpt lat="45.1494479" lon="7.6477355">
        <ele>248.1575928</ele>
        <time>2010-03-28T11:11:23Z</time>
      </trkpt>
      <trkpt lat="45.1505390" lon="7.6475445">
        <ele>248.6381836</ele>
        <time>2010-03-28T11:11:46Z</time>
      </trkpt>
      <trkpt lat="45.1508817" lon="7.6475129">
        <ele>249.1187744</ele>
        <time>2010-03-28T11:11:53Z</time>
      </trkpt>
      <trkpt lat="45.1519310" lon="7.6467568">
        <ele>250.0802002</ele>
        <time>2010-03-28T11:12:16Z</time>
      </trkpt>
      <trkpt lat="45.1527495" lon="7.6455619">
        <ele>251.0413818</ele>
        <time>2010-03-28T11:12:42Z</time>
      </trkpt>
      <trkpt lat="45.1529396" lon="7.6452121">
        <ele>251.0413818</ele>
        <time>2010-03-28T11:12:49Z</time>
      </trkpt>
      <trkpt lat="45.1530863" lon="7.6450796">
        <ele>251.0413818</ele>
        <time>2010-03-28T11:12:53Z</time>
      </trkpt>
      <trkpt lat="45.1534749" lon="7.6447598">
        <ele>252.4833984</ele>
        <time>2010-03-28T11:13:04Z</time>
      </trkpt>
      <trkpt lat="45.1537129" lon="7.6446041">
        <ele>252.4833984</ele>
        <time>2010-03-28T11:13:10Z</time>
      </trkpt>
      <trkpt lat="45.1539017" lon="7.6442638">
        <ele>252.4833984</ele>
        <time>2010-03-28T11:13:17Z</time>
      </trkpt>
      <trkpt lat="45.1539101" lon="7.6441369">
        <ele>252.4833984</ele>
        <time>2010-03-28T11:13:19Z</time>
      </trkpt>
      <trkpt lat="45.1539894" lon="7.6438390">
        <ele>252.4833984</ele>
        <time>2010-03-28T11:13:24Z</time>
      </trkpt>
      <trkpt lat="45.1544163" lon="7.6431998">
        <ele>252.0028076</ele>
        <time>2010-03-28T11:13:37Z</time>
      </trkpt>
      <trkpt lat="45.1544831" lon="7.6431180">
        <ele>252.9639893</ele>
        <time>2010-03-28T11:13:39Z</time>
      </trkpt>
      <trkpt lat="45.1554432" lon="7.6417732">
        <ele>252.9639893</ele>
        <time>2010-03-28T11:14:08Z</time>
      </trkpt>
      <trkpt lat="45.1563719" lon="7.6404484">
        <ele>253.4447021</ele>
        <time>2010-03-28T11:14:34Z</time>
      </trkpt>
      <trkpt lat="45.1573415" lon="7.6390528">
        <ele>254.4060059</ele>
        <time>2010-03-28T11:15:01Z</time>
      </trkpt>
      <trkpt lat="45.1577708" lon="7.6384278">
        <ele>254.8865967</ele>
        <time>2010-03-28T11:15:14Z</time>
      </trkpt>
      <trkpt lat="45.1578239" lon="7.6383277">
        <ele>254.8865967</ele>
        <time>2010-03-28T11:15:16Z</time>
      </trkpt>
      <trkpt lat="45.1579224" lon="7.6381342">
        <ele>254.8865967</ele>
        <time>2010-03-28T11:15:20Z</time>
      </trkpt>
      <trkpt lat="45.1582012" lon="7.6378363">
        <ele>255.3673096</ele>
        <time>2010-03-28T11:15:31Z</time>
      </trkpt>
      <trkpt lat="45.1583376" lon="7.6378770">
        <ele>256.3287354</ele>
        <time>2010-03-28T11:19:34Z</time>
      </trkpt>
      <trkpt lat="45.1588750" lon="7.6380618">
        <ele>257.2900391</ele>
        <time>2010-03-28T11:19:52Z</time>
      </trkpt>
      <trkpt lat="45.1595380" lon="7.6386841">
        <ele>257.7707520</ele>
        <time>2010-03-28T11:20:13Z</time>
      </trkpt>
      <trkpt lat="45.1605069" lon="7.6395457">
        <ele>258.2513428</ele>
        <time>2010-03-28T11:20:38Z</time>
      </trkpt>
      <trkpt lat="45.1614186" lon="7.6403674">
        <ele>259.6933594</ele>
        <time>2010-03-28T11:21:02Z</time>
      </trkpt>
      <trkpt lat="45.1625570" lon="7.6414022">
        <ele>260.6545410</ele>
        <time>2010-03-28T11:21:30Z</time>
      </trkpt>
      <trkpt lat="45.1629434" lon="7.6417209">
        <ele>260.6545410</ele>
        <time>2010-03-28T11:21:41Z</time>
      </trkpt>
      <trkpt lat="45.1633930" lon="7.6421436">
        <ele>261.1352539</ele>
        <time>2010-03-28T11:21:53Z</time>
      </trkpt>
      <trkpt lat="45.1636987" lon="7.6423948">
        <ele>261.6159668</ele>
        <time>2010-03-28T11:22:01Z</time>
      </trkpt>
      <trkpt lat="45.1647387" lon="7.6433308">
        <ele>261.1352539</ele>
        <time>2010-03-28T11:22:27Z</time>
      </trkpt>
      <trkpt lat="45.1649141" lon="7.6434450">
        <ele>261.6159668</ele>
        <time>2010-03-28T11:22:32Z</time>
      </trkpt>
      <trkpt lat="45.1652997" lon="7.6425744">
        <ele>263.0578613</ele>
        <time>2010-03-28T11:22:51Z</time>
      </trkpt>
      <trkpt lat="45.1659130" lon="7.6411449">
        <ele>263.5385742</ele>
        <time>2010-03-28T11:23:17Z</time>
      </trkpt>
      <trkpt lat="45.1664031" lon="7.6400080">
        <ele>264.0192871</ele>
        <time>2010-03-28T11:23:40Z</time>
      </trkpt>
      <trkpt lat="45.1669936" lon="7.6383985">
        <ele>265.9418945</ele>
        <time>2010-03-28T11:24:08Z</time>
      </trkpt>
      <trkpt lat="45.1673703" lon="7.6376458">
        <ele>266.4224854</ele>
        <time>2010-03-28T11:24:22Z</time>
      </trkpt>
      <trkpt lat="45.1675490" lon="7.6373769">
        <ele>266.9031982</ele>
        <time>2010-03-28T11:24:28Z</time>
      </trkpt>
      <trkpt lat="45.1677697" lon="7.6371473">
        <ele>266.9031982</ele>
        <time>2010-03-28T11:24:35Z</time>
      </trkpt>
      <trkpt lat="45.1679753" lon="7.6371454">
        <ele>266.9031982</ele>
        <time>2010-03-28T11:24:40Z</time>
      </trkpt>
      <trkpt lat="45.1682724" lon="7.6372753">
        <ele>266.9031982</ele>
        <time>2010-03-28T11:24:47Z</time>
      </trkpt>
      <trkpt lat="45.1690368" lon="7.6376956">
        <ele>266.9031982</ele>
        <time>2010-03-28T11:25:05Z</time>
      </trkpt>
      <trkpt lat="45.1693917" lon="7.6377563">
        <ele>267.3839111</ele>
        <time>2010-03-28T11:25:15Z</time>
      </trkpt>
      <trkpt lat="45.1696383" lon="7.6372159">
        <ele>268.3450928</ele>
        <time>2010-03-28T11:25:28Z</time>
      </trkpt>
      <trkpt lat="45.1697354" lon="7.6370129">
        <ele>267.8645020</ele>
        <time>2010-03-28T11:25:32Z</time>
      </trkpt>
      <trkpt lat="45.1702343" lon="7.6360115">
        <ele>269.3065186</ele>
        <time>2010-03-28T11:25:52Z</time>
      </trkpt>
      <trkpt lat="45.1707428" lon="7.6349728">
        <ele>269.3065186</ele>
        <time>2010-03-28T11:26:14Z</time>
      </trkpt>
      <trkpt lat="45.1708643" lon="7.6346968">
        <ele>269.7871094</ele>
        <time>2010-03-28T11:26:22Z</time>
      </trkpt>
      <trkpt lat="45.1711252" lon="7.6351871">
        <ele>270.2677002</ele>
        <time>2010-03-28T11:26:35Z</time>
      </trkpt>
      <trkpt lat="45.1712200" lon="7.6353410">
        <ele>270.2677002</ele>
        <time>2010-03-28T11:26:39Z</time>
      </trkpt>
      <trkpt lat="45.1714403" lon="7.6353053">
        <ele>270.2677002</ele>
        <time>2010-03-28T11:26:45Z</time>
      </trkpt>
      <trkpt lat="45.1721998" lon="7.6343171">
        <ele>271.2291260</ele>
        <time>2010-03-28T11:27:09Z</time>
      </trkpt>
      <trkpt lat="45.1723244" lon="7.6340626">
        <ele>271.2291260</ele>
        <time>2010-03-28T11:27:14Z</time>
      </trkpt>
      <trkpt lat="45.1724986" lon="7.6335727">
        <ele>271.7097168</ele>
        <time>2010-03-28T11:27:23Z</time>
      </trkpt>
      <trkpt lat="45.1725461" lon="7.6334637">
        <ele>271.7097168</ele>
        <time>2010-03-28T11:27:25Z</time>
      </trkpt>
      <trkpt lat="45.1727268" lon="7.6332638">
        <ele>271.7097168</ele>
        <time>2010-03-28T11:27:30Z</time>
      </trkpt>
      <trkpt lat="45.1735450" lon="7.6331116">
        <ele>273.1518555</ele>
        <time>2010-03-28T11:27:47Z</time>
      </trkpt>
      <trkpt lat="45.1737861" lon="7.6328305">
        <ele>273.1518555</ele>
        <time>2010-03-28T11:27:55Z</time>
      </trkpt>
      <trkpt lat="45.1738620" lon="7.6325535">
        <ele>273.1518555</ele>
        <time>2010-03-28T11:28:00Z</time>
      </trkpt>
      <trkpt lat="45.1742849" lon="7.6312470">
        <ele>273.6324463</ele>
        <time>2010-03-28T11:28:22Z</time>
      </trkpt>
      <trkpt lat="45.1748334" lon="7.6300910">
        <ele>275.5550537</ele>
        <time>2010-03-28T11:28:43Z</time>
      </trkpt>
      <trkpt lat="45.1749373" lon="7.6299232">
        <ele>275.0744629</ele>
        <time>2010-03-28T11:28:46Z</time>
      </trkpt>
      <trkpt lat="45.1750597" lon="7.6297881">
        <ele>275.5550537</ele>
        <time>2010-03-28T11:28:49Z</time>
      </trkpt>
      <trkpt lat="45.1757071" lon="7.6292861">
        <ele>275.5550537</ele>
        <time>2010-03-28T11:29:05Z</time>
      </trkpt>
      <trkpt lat="45.1768221" lon="7.6288105">
        <ele>276.0356445</ele>
        <time>2010-03-28T11:29:29Z</time>
      </trkpt>
      <trkpt lat="45.1774364" lon="7.6281609">
        <ele>276.0356445</ele>
        <time>2010-03-28T11:29:46Z</time>
      </trkpt>
      <trkpt lat="45.1775446" lon="7.6280606">
        <ele>276.0356445</ele>
        <time>2010-03-28T11:29:49Z</time>
      </trkpt>
      <trkpt lat="45.1788986" lon="7.6277132">
        <ele>277.9582520</ele>
        <time>2010-03-28T11:30:17Z</time>
      </trkpt>
      <trkpt lat="45.1802399" lon="7.6274236">
        <ele>279.8808594</ele>
        <time>2010-03-28T11:30:45Z</time>
      </trkpt>
      <trkpt lat="45.1806249" lon="7.6273289">
        <ele>279.8808594</ele>
        <time>2010-03-28T11:30:53Z</time>
      </trkpt>
      <trkpt lat="45.1807234" lon="7.6270323">
        <ele>280.8424072</ele>
        <time>2010-03-28T11:31:00Z</time>
      </trkpt>
      <trkpt lat="45.1807352" lon="7.6266385">
        <ele>280.8424072</ele>
        <time>2010-03-28T11:31:06Z</time>
      </trkpt>
      <trkpt lat="45.1816230" lon="7.6253557">
        <ele>281.8035889</ele>
        <time>2010-03-28T11:31:31Z</time>
      </trkpt>
      <trkpt lat="45.1818063" lon="7.6252388">
        <ele>281.8035889</ele>
        <time>2010-03-28T11:31:35Z</time>
      </trkpt>
      <trkpt lat="45.1833481" lon="7.6252613">
        <ele>284.2069092</ele>
        <time>2010-03-28T11:32:05Z</time>
      </trkpt>
      <trkpt lat="45.1846196" lon="7.6250055">
        <ele>284.6876221</ele>
        <time>2010-03-28T11:32:32Z</time>
      </trkpt>
      <trkpt lat="45.1849108" lon="7.6249231">
        <ele>285.1682129</ele>
        <time>2010-03-28T11:32:38Z</time>
      </trkpt>
      <trkpt lat="45.1861874" lon="7.6237979">
        <ele>287.0908203</ele>
        <time>2010-03-28T11:33:07Z</time>
      </trkpt>
      <trkpt lat="45.1872482" lon="7.6227670">
        <ele>288.0522461</ele>
        <time>2010-03-28T11:33:32Z</time>
      </trkpt>
      <trkpt lat="45.1874428" lon="7.6227200">
        <ele>288.0522461</ele>
        <time>2010-03-28T11:33:36Z</time>
      </trkpt>
      <trkpt lat="45.1883793" lon="7.6224846">
        <ele>289.4941406</ele>
        <time>2010-03-28T11:33:55Z</time>
      </trkpt>
      <trkpt lat="45.1884756" lon="7.6224312">
        <ele>289.0135498</ele>
        <time>2010-03-28T11:33:57Z</time>
      </trkpt>
      <trkpt lat="45.1887626" lon="7.6225272">
        <ele>289.4941406</ele>
        <time>2010-03-28T11:34:03Z</time>
      </trkpt>
      <trkpt lat="45.1894303" lon="7.6229791">
        <ele>290.9361572</ele>
        <time>2010-03-28T11:34:23Z</time>
      </trkpt>
      <trkpt lat="45.1898818" lon="7.6224043">
        <ele>291.4167480</ele>
        <time>2010-03-28T11:34:43Z</time>
      </trkpt>
      <trkpt lat="45.1904648" lon="7.6217114">
        <ele>293.3393555</ele>
        <time>2010-03-28T11:35:02Z</time>
      </trkpt>
      <trkpt lat="45.1905326" lon="7.6216380">
        <ele>293.8200684</ele>
        <time>2010-03-28T11:35:04Z</time>
      </trkpt>
      <trkpt lat="45.1912433" lon="7.6207342">
        <ele>294.3007813</ele>
        <time>2010-03-28T11:35:25Z</time>
      </trkpt>
      <trkpt lat="45.1918697" lon="7.6199842">
        <ele>295.2619629</ele>
        <time>2010-03-28T11:35:47Z</time>
      </trkpt>
      <trkpt lat="45.1920867" lon="7.6197432">
        <ele>295.7426758</ele>
        <time>2010-03-28T11:36:06Z</time>
      </trkpt>
      <trkpt lat="45.1920984" lon="7.6197317">
        <ele>295.7426758</ele>
        <time>2010-03-28T11:36:30Z</time>
      </trkpt>
      <trkpt lat="45.1921138" lon="7.6196928">
        <ele>295.7426758</ele>
        <time>2010-03-28T11:36:33Z</time>
      </trkpt>
      <trkpt lat="45.1921563" lon="7.6196490">
        <ele>296.2235107</ele>
        <time>2010-03-28T11:36:37Z</time>
      </trkpt>
      <trkpt lat="45.1923107" lon="7.6194482">
        <ele>295.2619629</ele>
        <time>2010-03-28T11:36:50Z</time>
      </trkpt>
      <trkpt lat="45.1927264" lon="7.6189044">
        <ele>296.7041016</ele>
        <time>2010-03-28T11:37:12Z</time>
      </trkpt>
      <trkpt lat="45.1932927" lon="7.6181857">
        <ele>298.1461182</ele>
        <time>2010-03-28T11:37:31Z</time>
      </trkpt>
      <trkpt lat="45.1939660" lon="7.6173231">
        <ele>299.1072998</ele>
        <time>2010-03-28T11:37:53Z</time>
      </trkpt>
      <trkpt lat="45.1941507" lon="7.6170992">
        <ele>299.5880127</ele>
        <time>2010-03-28T11:37:59Z</time>
      </trkpt>
      <trkpt lat="45.1949899" lon="7.6160085">
        <ele>300.5493164</ele>
        <time>2010-03-28T11:38:25Z</time>
      </trkpt>
      <trkpt lat="45.1957531" lon="7.6152427">
        <ele>301.9913330</ele>
        <time>2010-03-28T11:38:46Z</time>
      </trkpt>
      <trkpt lat="45.1964748" lon="7.6145131">
        <ele>303.4332275</ele>
        <time>2010-03-28T11:39:04Z</time>
      </trkpt>
      <trkpt lat="45.1965710" lon="7.6143488">
        <ele>302.9525146</ele>
        <time>2010-03-28T11:39:07Z</time>
      </trkpt>
      <trkpt lat="45.1967335" lon="7.6137558">
        <ele>303.4332275</ele>
        <time>2010-03-28T11:39:16Z</time>
      </trkpt>
      <trkpt lat="45.1967041" lon="7.6132604">
        <ele>302.9525146</ele>
        <time>2010-03-28T11:39:23Z</time>
      </trkpt>
      <trkpt lat="45.1969935" lon="7.6115507">
        <ele>303.4332275</ele>
        <time>2010-03-28T11:39:46Z</time>
      </trkpt>
      <trkpt lat="45.1973664" lon="7.6106496">
        <ele>304.3946533</ele>
        <time>2010-03-28T11:40:06Z</time>
      </trkpt>
      <trkpt lat="45.1979902" lon="7.6092373">
        <ele>306.3172607</ele>
        <time>2010-03-28T11:40:32Z</time>
      </trkpt>
      <trkpt lat="45.1987454" lon="7.6075164">
        <ele>306.7978516</ele>
        <time>2010-03-28T11:41:02Z</time>
      </trkpt>
      <trkpt lat="45.1994708" lon="7.6060416">
        <ele>306.3172607</ele>
        <time>2010-03-28T11:41:25Z</time>
      </trkpt>
      <trkpt lat="45.1999341" lon="7.6048284">
        <ele>307.7592773</ele>
        <time>2010-03-28T11:41:46Z</time>
      </trkpt>
      <trkpt lat="45.1999487" lon="7.6047647">
        <ele>307.7592773</ele>
        <time>2010-03-28T11:41:47Z</time>
      </trkpt>
      <trkpt lat="45.2001863" lon="7.6046744">
        <ele>307.7592773</ele>
        <time>2010-03-28T11:41:54Z</time>
      </trkpt>
      <trkpt lat="45.2005728" lon="7.6049360">
        <ele>308.2398682</ele>
        <time>2010-03-28T11:42:03Z</time>
      </trkpt>
      <trkpt lat="45.2008459" lon="7.6048809">
        <ele>309.2011719</ele>
        <time>2010-03-28T11:42:11Z</time>
      </trkpt>
      <trkpt lat="45.2014875" lon="7.6037204">
        <ele>310.6430664</ele>
        <time>2010-03-28T11:42:37Z</time>
      </trkpt>
      <trkpt lat="45.2019226" lon="7.6028964">
        <ele>312.5657959</ele>
        <time>2010-03-28T11:42:55Z</time>
      </trkpt>
      <trkpt lat="45.2020496" lon="7.6027285">
        <ele>311.6044922</ele>
        <time>2010-03-28T11:42:59Z</time>
      </trkpt>
      <trkpt lat="45.2030307" lon="7.6017233">
        <ele>313.5272217</ele>
        <time>2010-03-28T11:43:26Z</time>
      </trkpt>
      <trkpt lat="45.2037000" lon="7.6010460">
        <ele>314.0078125</ele>
        <time>2010-03-28T11:43:46Z</time>
      </trkpt>
      <trkpt lat="45.2037351" lon="7.6010101">
        <ele>314.4884033</ele>
        <time>2010-03-28T11:43:47Z</time>
      </trkpt>
      <trkpt lat="45.2042631" lon="7.6003235">
        <ele>314.9691162</ele>
        <time>2010-03-28T11:44:04Z</time>
      </trkpt>
      <trkpt lat="45.2043198" lon="7.6001787">
        <ele>314.9691162</ele>
        <time>2010-03-28T11:44:07Z</time>
      </trkpt>
      <trkpt lat="45.2043112" lon="7.5999780">
        <ele>315.4498291</ele>
        <time>2010-03-28T11:44:11Z</time>
      </trkpt>
      <trkpt lat="45.2040693" lon="7.5995191">
        <ele>314.9691162</ele>
        <time>2010-03-28T11:44:24Z</time>
      </trkpt>
      <trkpt lat="45.2040849" lon="7.5994135">
        <ele>315.4498291</ele>
        <time>2010-03-28T11:44:28Z</time>
      </trkpt>
      <trkpt lat="45.2042829" lon="7.5987293">
        <ele>315.9304199</ele>
        <time>2010-03-28T11:44:51Z</time>
      </trkpt>
      <trkpt lat="45.2049733" lon="7.5977969">
        <ele>315.4498291</ele>
        <time>2010-03-28T11:45:13Z</time>
      </trkpt>
      <trkpt lat="45.2050109" lon="7.5977596">
        <ele>315.4498291</ele>
        <time>2010-03-28T11:45:14Z</time>
      </trkpt>
      <trkpt lat="45.2051934" lon="7.5976835">
        <ele>315.9304199</ele>
        <time>2010-03-28T11:45:18Z</time>
      </trkpt>
      <trkpt lat="45.2055309" lon="7.5977217">
        <ele>316.8917236</ele>
        <time>2010-03-28T11:45:26Z</time>
      </trkpt>
      <trkpt lat="45.2057551" lon="7.5977452">
        <ele>317.3724365</ele>
        <time>2010-03-28T11:45:31Z</time>
      </trkpt>
      <trkpt lat="45.2059988" lon="7.5977683">
        <ele>317.3724365</ele>
        <time>2010-03-28T11:45:36Z</time>
      </trkpt>
      <trkpt lat="45.2065060" lon="7.5976392">
        <ele>318.3336182</ele>
        <time>2010-03-28T11:45:46Z</time>
      </trkpt>
      <trkpt lat="45.2067004" lon="7.5976289">
        <ele>317.8530273</ele>
        <time>2010-03-28T11:45:50Z</time>
      </trkpt>
      <trkpt lat="45.2079530" lon="7.5972414">
        <ele>319.7756348</ele>
        <time>2010-03-28T11:46:15Z</time>
      </trkpt>
      <trkpt lat="45.2091903" lon="7.5964559">
        <ele>321.6983643</ele>
        <time>2010-03-28T11:46:43Z</time>
      </trkpt>
      <trkpt lat="45.2095888" lon="7.5960826">
        <ele>322.1789551</ele>
        <time>2010-03-28T11:46:53Z</time>
      </trkpt>
      <trkpt lat="45.2104002" lon="7.5948521">
        <ele>323.6209717</ele>
        <time>2010-03-28T11:47:17Z</time>
      </trkpt>
      <trkpt lat="45.2113699" lon="7.5934192">
        <ele>324.1015625</ele>
        <time>2010-03-28T11:47:45Z</time>
      </trkpt>
      <trkpt lat="45.2121647" lon="7.5929190">
        <ele>325.5435791</ele>
        <time>2010-03-28T11:48:03Z</time>
      </trkpt>
      <trkpt lat="45.2128582" lon="7.5919975">
        <ele>326.5048828</ele>
        <time>2010-03-28T11:48:22Z</time>
      </trkpt>
      <trkpt lat="45.2130089" lon="7.5916665">
        <ele>326.9855957</ele>
        <time>2010-03-28T11:48:28Z</time>
      </trkpt>
      <trkpt lat="45.2133449" lon="7.5911979">
        <ele>326.5048828</ele>
        <time>2010-03-28T11:48:42Z</time>
      </trkpt>
      <trkpt lat="45.2134784" lon="7.5907454">
        <ele>325.0629883</ele>
        <time>2010-03-28T11:48:52Z</time>
      </trkpt>
      <trkpt lat="45.2133695" lon="7.5894677">
        <ele>323.6209717</ele>
        <time>2010-03-28T11:49:12Z</time>
      </trkpt>
      <trkpt lat="45.2134250" lon="7.5893253">
        <ele>324.5822754</ele>
        <time>2010-03-28T11:49:15Z</time>
      </trkpt>
      <trkpt lat="45.2136753" lon="7.5890923">
        <ele>324.5822754</ele>
        <time>2010-03-28T11:49:22Z</time>
      </trkpt>
      <trkpt lat="45.2139889" lon="7.5889264">
        <ele>325.0629883</ele>
        <time>2010-03-28T11:49:29Z</time>
      </trkpt>
      <trkpt lat="45.2145298" lon="7.5880115">
        <ele>325.5435791</ele>
        <time>2010-03-28T11:49:47Z</time>
      </trkpt>
      <trkpt lat="45.2149164" lon="7.5872542">
        <ele>326.5048828</ele>
        <time>2010-03-28T11:50:02Z</time>
      </trkpt>
      <trkpt lat="45.2150081" lon="7.5870686">
        <ele>326.5048828</ele>
        <time>2010-03-28T11:50:06Z</time>
      </trkpt>
      <trkpt lat="45.2156245" lon="7.5858494">
        <ele>327.4661865</ele>
        <time>2010-03-28T11:50:33Z</time>
      </trkpt>
      <trkpt lat="45.2163287" lon="7.5844601">
        <ele>328.9083252</ele>
        <time>2010-03-28T11:51:02Z</time>
      </trkpt>
      <trkpt lat="45.2169280" lon="7.5832665">
        <ele>328.9083252</ele>
        <time>2010-03-28T11:51:27Z</time>
      </trkpt>
      <trkpt lat="45.2173370" lon="7.5825514">
        <ele>330.3502197</ele>
        <time>2010-03-28T11:51:47Z</time>
      </trkpt>
      <trkpt lat="45.2176561" lon="7.5817084">
        <ele>331.7921143</ele>
        <time>2010-03-28T11:52:06Z</time>
      </trkpt>
      <trkpt lat="45.2184264" lon="7.5809597">
        <ele>332.7535400</ele>
        <time>2010-03-28T11:52:27Z</time>
      </trkpt>
      <trkpt lat="45.2194032" lon="7.5800545">
        <ele>334.1954346</ele>
        <time>2010-03-28T11:52:54Z</time>
      </trkpt>
      <trkpt lat="45.2198192" lon="7.5796516">
        <ele>334.6761475</ele>
        <time>2010-03-28T11:53:05Z</time>
      </trkpt>
      <trkpt lat="45.2206871" lon="7.5782423">
        <ele>337.0794678</ele>
        <time>2010-03-28T11:53:35Z</time>
      </trkpt>
      <trkpt lat="45.2211110" lon="7.5775813">
        <ele>337.5600586</ele>
        <time>2010-03-28T11:53:52Z</time>
      </trkpt>
      <trkpt lat="45.2212258" lon="7.5776748">
        <ele>338.5214844</ele>
        <time>2010-03-28T11:53:56Z</time>
      </trkpt>
      <trkpt lat="45.2216629" lon="7.5787672">
        <ele>338.5214844</ele>
        <time>2010-03-28T11:54:19Z</time>
      </trkpt>
      <trkpt lat="45.2216852" lon="7.5788101">
        <ele>338.5214844</ele>
        <time>2010-03-28T11:54:20Z</time>
      </trkpt>
      <trkpt lat="45.2219810" lon="7.5796807">
        <ele>338.0407715</ele>
        <time>2010-03-28T11:54:35Z</time>
      </trkpt>
      <trkpt lat="45.2226441" lon="7.5806873">
        <ele>338.0407715</ele>
        <time>2010-03-28T11:54:56Z</time>
      </trkpt>
      <trkpt lat="45.2227655" lon="7.5809012">
        <ele>337.5600586</ele>
        <time>2010-03-28T11:55:00Z</time>
      </trkpt>
      <trkpt lat="45.2233025" lon="7.5817792">
        <ele>339.9633789</ele>
        <time>2010-03-28T11:55:23Z</time>
      </trkpt>
      <trkpt lat="45.2235905" lon="7.5822234">
        <ele>343.3278809</ele>
        <time>2010-03-28T11:55:36Z</time>
      </trkpt>
      <trkpt lat="45.2240952" lon="7.5825791">
        <ele>346.2120361</ele>
        <time>2010-03-28T11:55:56Z</time>
      </trkpt>
      <trkpt lat="45.2244621" lon="7.5824471">
        <ele>346.2120361</ele>
        <time>2010-03-28T11:56:12Z</time>
      </trkpt>
      <trkpt lat="45.2248646" lon="7.5821016">
        <ele>346.2120361</ele>
        <time>2010-03-28T11:56:34Z</time>
      </trkpt>
      <trkpt lat="45.2254552" lon="7.5816468">
        <ele>346.6926270</ele>
        <time>2010-03-28T11:56:59Z</time>
      </trkpt>
      <trkpt lat="45.2260186" lon="7.5811703">
        <ele>348.1346436</ele>
        <time>2010-03-28T11:57:21Z</time>
      </trkpt>
      <trkpt lat="45.2266815" lon="7.5806405">
        <ele>349.0958252</ele>
        <time>2010-03-28T11:57:43Z</time>
      </trkpt>
      <trkpt lat="45.2273718" lon="7.5803491">
        <ele>350.0572510</ele>
        <time>2010-03-28T11:58:04Z</time>
      </trkpt>
      <trkpt lat="45.2281244" lon="7.5800166">
        <ele>351.0184326</ele>
        <time>2010-03-28T11:58:26Z</time>
      </trkpt>
      <trkpt lat="45.2289942" lon="7.5793686">
        <ele>351.9798584</ele>
        <time>2010-03-28T11:58:51Z</time>
      </trkpt>
      <trkpt lat="45.2297769" lon="7.5789034">
        <ele>352.4605713</ele>
        <time>2010-03-28T11:59:14Z</time>
      </trkpt>
      <trkpt lat="45.2304857" lon="7.5788915">
        <ele>353.4218750</ele>
        <time>2010-03-28T11:59:33Z</time>
      </trkpt>
      <trkpt lat="45.2310376" lon="7.5786464">
        <ele>354.3831787</ele>
        <time>2010-03-28T11:59:48Z</time>
      </trkpt>
      <trkpt lat="45.2316319" lon="7.5775616">
        <ele>355.8251953</ele>
        <time>2010-03-28T12:00:12Z</time>
      </trkpt>
      <trkpt lat="45.2319425" lon="7.5770340">
        <ele>355.8251953</ele>
        <time>2010-03-28T12:00:24Z</time>
      </trkpt>
      <trkpt lat="45.2323145" lon="7.5763057">
        <ele>356.3057861</ele>
        <time>2010-03-28T12:00:44Z</time>
      </trkpt>
      <trkpt lat="45.2322180" lon="7.5758733">
        <ele>356.3057861</ele>
        <time>2010-03-28T12:01:03Z</time>
      </trkpt>
      <trkpt lat="45.2321275" lon="7.5748246">
        <ele>356.7863770</ele>
        <time>2010-03-28T12:01:26Z</time>
      </trkpt>
      <trkpt lat="45.2320225" lon="7.5739201">
        <ele>357.2670898</ele>
        <time>2010-03-28T12:01:45Z</time>
      </trkpt>
      <trkpt lat="45.2319287" lon="7.5730672">
        <ele>358.2283936</ele>
        <time>2010-03-28T12:02:04Z</time>
      </trkpt>
      <trkpt lat="45.2315699" lon="7.5724262">
        <ele>358.7089844</ele>
        <time>2010-03-28T12:02:24Z</time>
      </trkpt>
      <trkpt lat="45.2315501" lon="7.5723834">
        <ele>358.2283936</ele>
        <time>2010-03-28T12:02:25Z</time>
      </trkpt>
      <trkpt lat="45.2318240" lon="7.5716699">
        <ele>358.7089844</ele>
        <time>2010-03-28T12:02:42Z</time>
      </trkpt>
      <trkpt lat="45.2323589" lon="7.5703536">
        <ele>360.6317139</ele>
        <time>2010-03-28T12:03:12Z</time>
      </trkpt>
      <trkpt lat="45.2327442" lon="7.5693284">
        <ele>360.6317139</ele>
        <time>2010-03-28T12:03:34Z</time>
      </trkpt>
      <trkpt lat="45.2328432" lon="7.5687456">
        <ele>361.1124268</ele>
        <time>2010-03-28T12:03:52Z</time>
      </trkpt>
      <trkpt lat="45.2323573" lon="7.5680899">
        <ele>361.5931396</ele>
        <time>2010-03-28T12:04:14Z</time>
      </trkpt>
      <trkpt lat="45.2318207" lon="7.5673810">
        <ele>361.5931396</ele>
        <time>2010-03-28T12:04:37Z</time>
      </trkpt>
      <trkpt lat="45.2314926" lon="7.5667605">
        <ele>362.0737305</ele>
        <time>2010-03-28T12:04:56Z</time>
      </trkpt>
      <trkpt lat="45.2312515" lon="7.5665368">
        <ele>362.0737305</ele>
        <time>2010-03-28T12:05:04Z</time>
      </trkpt>
      <trkpt lat="45.2312445" lon="7.5664607">
        <ele>361.1124268</ele>
        <time>2010-03-28T12:05:06Z</time>
      </trkpt>
      <trkpt lat="45.2312943" lon="7.5663131">
        <ele>362.0737305</ele>
        <time>2010-03-28T12:05:09Z</time>
      </trkpt>
      <trkpt lat="45.2315417" lon="7.5653633">
        <ele>363.0350342</ele>
        <time>2010-03-28T12:05:28Z</time>
      </trkpt>
      <trkpt lat="45.2316378" lon="7.5650733">
        <ele>362.0737305</ele>
        <time>2010-03-28T12:05:35Z</time>
      </trkpt>
      <trkpt lat="45.2316134" lon="7.5649724">
        <ele>362.0737305</ele>
        <time>2010-03-28T12:05:39Z</time>
      </trkpt>
      <trkpt lat="45.2313336" lon="7.5648342">
        <ele>360.1511230</ele>
        <time>2010-03-28T12:05:46Z</time>
      </trkpt>
      <trkpt lat="45.2311098" lon="7.5647270">
        <ele>359.6704102</ele>
        <time>2010-03-28T12:05:51Z</time>
      </trkpt>
      <trkpt lat="45.2309009" lon="7.5644830">
        <ele>358.2283936</ele>
        <time>2010-03-28T12:05:56Z</time>
      </trkpt>
      <trkpt lat="45.2305427" lon="7.5638041">
        <ele>357.7478027</ele>
        <time>2010-03-28T12:06:06Z</time>
      </trkpt>
      <trkpt lat="45.2298128" lon="7.5635078">
        <ele>357.7478027</ele>
        <time>2010-03-28T12:06:21Z</time>
      </trkpt>
      <trkpt lat="45.2295994" lon="7.5635520">
        <ele>357.7478027</ele>
        <time>2010-03-28T12:06:26Z</time>
      </trkpt>
      <trkpt lat="45.2294448" lon="7.5636647">
        <ele>357.2670898</ele>
        <time>2010-03-28T12:06:30Z</time>
      </trkpt>
      <trkpt lat="45.2286915" lon="7.5644709">
        <ele>355.3444824</ele>
        <time>2010-03-28T12:06:52Z</time>
      </trkpt>
      <trkpt lat="45.2285227" lon="7.5645990">
        <ele>355.3444824</ele>
        <time>2010-03-28T12:06:57Z</time>
      </trkpt>
      <trkpt lat="45.2284338" lon="7.5646402">
        <ele>354.8637695</ele>
        <time>2010-03-28T12:06:59Z</time>
      </trkpt>
      <trkpt lat="45.2276427" lon="7.5645008">
        <ele>353.4218750</ele>
        <time>2010-03-28T12:07:19Z</time>
      </trkpt>
      <trkpt lat="45.2274118" lon="7.5644454">
        <ele>353.4218750</ele>
        <time>2010-03-28T12:07:25Z</time>
      </trkpt>
      <trkpt lat="45.2268308" lon="7.5640032">
        <ele>352.9411621</ele>
        <time>2010-03-28T12:07:43Z</time>
      </trkpt>
      <trkpt lat="45.2264444" lon="7.5636573">
        <ele>352.9411621</ele>
        <time>2010-03-28T12:08:00Z</time>
      </trkpt>
      <trkpt lat="45.2259305" lon="7.5634993">
        <ele>352.4605713</ele>
        <time>2010-03-28T12:08:17Z</time>
      </trkpt>
      <trkpt lat="45.2255279" lon="7.5636241">
        <ele>351.9798584</ele>
        <time>2010-03-28T12:08:27Z</time>
      </trkpt>
      <trkpt lat="45.2253723" lon="7.5637070">
        <ele>351.9798584</ele>
        <time>2010-03-28T12:08:30Z</time>
      </trkpt>
      <trkpt lat="45.2252068" lon="7.5638867">
        <ele>351.4991455</ele>
        <time>2010-03-28T12:08:34Z</time>
      </trkpt>
      <trkpt lat="45.2248776" lon="7.5639849">
        <ele>351.0184326</ele>
        <time>2010-03-28T12:08:40Z</time>
      </trkpt>
      <trkpt lat="45.2241896" lon="7.5638718">
        <ele>349.5765381</ele>
        <time>2010-03-28T12:08:56Z</time>
      </trkpt>
      <trkpt lat="45.2237295" lon="7.5639551">
        <ele>350.0572510</ele>
        <time>2010-03-28T12:09:09Z</time>
      </trkpt>
      <trkpt lat="45.2231309" lon="7.5640570">
        <ele>349.0958252</ele>
        <time>2010-03-28T12:09:25Z</time>
      </trkpt>
      <trkpt lat="45.2224606" lon="7.5641359">
        <ele>348.6152344</ele>
        <time>2010-03-28T12:09:38Z</time>
      </trkpt>
      <trkpt lat="45.2219214" lon="7.5635731">
        <ele>347.6539307</ele>
        <time>2010-03-28T12:09:56Z</time>
      </trkpt>
      <trkpt lat="45.2217025" lon="7.5630748">
        <ele>345.7313232</ele>
        <time>2010-03-28T12:10:13Z</time>
      </trkpt>
      <trkpt lat="45.2217033" lon="7.5630735">
        <ele>345.7313232</ele>
        <time>2010-03-28T12:10:40Z</time>
      </trkpt>
      <trkpt lat="45.2215625" lon="7.5631154">
        <ele>345.2506104</ele>
        <time>2010-03-28T12:17:58Z</time>
      </trkpt>
      <trkpt lat="45.2209229" lon="7.5633320">
        <ele>344.2894287</ele>
        <time>2010-03-28T12:18:18Z</time>
      </trkpt>
      <trkpt lat="45.2202472" lon="7.5635587">
        <ele>343.8085938</ele>
        <time>2010-03-28T12:18:39Z</time>
      </trkpt>
      <trkpt lat="45.2197945" lon="7.5642672">
        <ele>343.3278809</ele>
        <time>2010-03-28T12:19:00Z</time>
      </trkpt>
      <trkpt lat="45.2190391" lon="7.5648996">
        <ele>342.3666992</ele>
        <time>2010-03-28T12:19:23Z</time>
      </trkpt>
      <trkpt lat="45.2184610" lon="7.5652281">
        <ele>340.9246826</ele>
        <time>2010-03-28T12:19:43Z</time>
      </trkpt>
      <trkpt lat="45.2177234" lon="7.5658011">
        <ele>340.9246826</ele>
        <time>2010-03-28T12:20:04Z</time>
      </trkpt>
      <trkpt lat="45.2174577" lon="7.5660109">
        <ele>340.4440918</ele>
        <time>2010-03-28T12:20:22Z</time>
      </trkpt>
      <trkpt lat="45.2174691" lon="7.5659863">
        <ele>340.4440918</ele>
        <time>2010-03-28T12:21:00Z</time>
      </trkpt>
      <trkpt lat="45.2175055" lon="7.5657432">
        <ele>340.9246826</ele>
        <time>2010-03-28T12:21:16Z</time>
      </trkpt>
      <trkpt lat="45.2174699" lon="7.5657231">
        <ele>340.9246826</ele>
        <time>2010-03-28T12:21:20Z</time>
      </trkpt>
      <trkpt lat="45.2172151" lon="7.5656009">
        <ele>339.4826660</ele>
        <time>2010-03-28T12:21:38Z</time>
      </trkpt>
      <trkpt lat="45.2168677" lon="7.5653278">
        <ele>339.4826660</ele>
        <time>2010-03-28T12:21:56Z</time>
      </trkpt>
      <trkpt lat="45.2168113" lon="7.5652310">
        <ele>339.9633789</ele>
        <time>2010-03-28T12:22:00Z</time>
      </trkpt>
      <trkpt lat="45.2169152" lon="7.5648536">
        <ele>339.4826660</ele>
        <time>2010-03-28T12:22:19Z</time>
      </trkpt>
      <trkpt lat="45.2169664" lon="7.5646810">
        <ele>339.0020752</ele>
        <time>2010-03-28T12:22:25Z</time>
      </trkpt>
      <trkpt lat="45.2168659" lon="7.5643167">
        <ele>338.5214844</ele>
        <time>2010-03-28T12:22:38Z</time>
      </trkpt>
      <trkpt lat="45.2167591" lon="7.5643386">
        <ele>337.5600586</ele>
        <time>2010-03-28T12:22:46Z</time>
      </trkpt>
      <trkpt lat="45.2165002" lon="7.5643888">
        <ele>337.5600586</ele>
        <time>2010-03-28T12:23:05Z</time>
      </trkpt>
      <trkpt lat="45.2164899" lon="7.5643642">
        <ele>337.0794678</ele>
        <time>2010-03-28T12:23:18Z</time>
      </trkpt>
      <trkpt lat="45.2164144" lon="7.5643576">
        <ele>336.5988770</ele>
        <time>2010-03-28T12:23:27Z</time>
      </trkpt>
      <trkpt lat="45.2163408" lon="7.5643765">
        <ele>336.5988770</ele>
        <time>2010-03-28T12:23:35Z</time>
      </trkpt>
      <trkpt lat="45.2163098" lon="7.5644404">
        <ele>337.0794678</ele>
        <time>2010-03-28T12:23:39Z</time>
      </trkpt>
      <trkpt lat="45.2162938" lon="7.5645360">
        <ele>337.5600586</ele>
        <time>2010-03-28T12:24:02Z</time>
      </trkpt>
      <trkpt lat="45.2162934" lon="7.5645355">
        <ele>337.0794678</ele>
        <time>2010-03-28T12:24:11Z</time>
      </trkpt>
      <trkpt lat="45.2162254" lon="7.5646047">
        <ele>338.0407715</ele>
        <time>2010-03-28T12:24:17Z</time>
      </trkpt>
      <trkpt lat="45.2157762" lon="7.5649884">
        <ele>336.5988770</ele>
        <time>2010-03-28T12:24:40Z</time>
      </trkpt>
      <trkpt lat="45.2154589" lon="7.5652462">
        <ele>336.5988770</ele>
        <time>2010-03-28T12:24:59Z</time>
      </trkpt>
      <trkpt lat="45.2154471" lon="7.5652048">
        <ele>336.5988770</ele>
        <time>2010-03-28T12:25:25Z</time>
      </trkpt>
      <trkpt lat="45.2154680" lon="7.5651927">
        <ele>337.0794678</ele>
        <time>2010-03-28T12:49:25Z</time>
      </trkpt>
      <trkpt lat="45.2154984" lon="7.5652086">
        <ele>337.5600586</ele>
        <time>2010-03-28T12:49:28Z</time>
      </trkpt>
      <trkpt lat="45.2155748" lon="7.5651340">
        <ele>337.5600586</ele>
        <time>2010-03-28T12:49:34Z</time>
      </trkpt>
      <trkpt lat="45.2159116" lon="7.5648842">
        <ele>338.0407715</ele>
        <time>2010-03-28T12:49:52Z</time>
      </trkpt>
      <trkpt lat="45.2160741" lon="7.5647732">
        <ele>338.0407715</ele>
        <time>2010-03-28T12:50:10Z</time>
      </trkpt>
      <trkpt lat="45.2160785" lon="7.5647498">
        <ele>337.0794678</ele>
        <time>2010-03-28T12:50:57Z</time>
      </trkpt>
      <trkpt lat="45.2160800" lon="7.5647474">
        <ele>338.5214844</ele>
        <time>2010-03-28T12:53:05Z</time>
      </trkpt>
      <trkpt lat="45.2163130" lon="7.5645782">
        <ele>338.5214844</ele>
        <time>2010-03-28T12:53:30Z</time>
      </trkpt>
      <trkpt lat="45.2163103" lon="7.5645642">
        <ele>338.5214844</ele>
        <time>2010-03-28T12:53:31Z</time>
      </trkpt>
      <trkpt lat="45.2163206" lon="7.5645123">
        <ele>339.0020752</ele>
        <time>2010-03-28T12:54:02Z</time>
      </trkpt>
      <trkpt lat="45.2163165" lon="7.5644924">
        <ele>339.4826660</ele>
        <time>2010-03-28T13:08:45Z</time>
      </trkpt>
      <trkpt lat="45.2163435" lon="7.5644216">
        <ele>338.5214844</ele>
        <time>2010-03-28T13:08:56Z</time>
      </trkpt>
      <trkpt lat="45.2165196" lon="7.5644153">
        <ele>339.9633789</ele>
        <time>2010-03-28T13:09:13Z</time>
      </trkpt>
      <trkpt lat="45.2166161" lon="7.5644404">
        <ele>339.9633789</ele>
        <time>2010-03-28T13:09:34Z</time>
      </trkpt>
      <trkpt lat="45.2168156" lon="7.5643161">
        <ele>339.4826660</ele>
        <time>2010-03-28T13:10:12Z</time>
      </trkpt>
      <trkpt lat="45.2168569" lon="7.5643090">
        <ele>339.9633789</ele>
        <time>2010-03-28T13:10:28Z</time>
      </trkpt>
      <trkpt lat="45.2169490" lon="7.5646549">
        <ele>340.4440918</ele>
        <time>2010-03-28T13:10:43Z</time>
      </trkpt>
      <trkpt lat="45.2168171" lon="7.5650806">
        <ele>342.3666992</ele>
        <time>2010-03-28T13:11:03Z</time>
      </trkpt>
      <trkpt lat="45.2167850" lon="7.5652564">
        <ele>341.8859863</ele>
        <time>2010-03-28T13:11:13Z</time>
      </trkpt>
      <trkpt lat="45.2170951" lon="7.5655464">
        <ele>341.4052734</ele>
        <time>2010-03-28T13:11:31Z</time>
      </trkpt>
      <trkpt lat="45.2174234" lon="7.5657450">
        <ele>342.8472900</ele>
        <time>2010-03-28T13:11:50Z</time>
      </trkpt>
      <trkpt lat="45.2174860" lon="7.5658143">
        <ele>342.8472900</ele>
        <time>2010-03-28T13:11:55Z</time>
      </trkpt>
      <trkpt lat="45.2179171" lon="7.5656242">
        <ele>343.3278809</ele>
        <time>2010-03-28T13:12:14Z</time>
      </trkpt>
      <trkpt lat="45.2184065" lon="7.5652327">
        <ele>343.3278809</ele>
        <time>2010-03-28T13:12:34Z</time>
      </trkpt>
      <trkpt lat="45.2189268" lon="7.5649477">
        <ele>344.2894287</ele>
        <time>2010-03-28T13:12:56Z</time>
      </trkpt>
      <trkpt lat="45.2195326" lon="7.5645748">
        <ele>345.7313232</ele>
        <time>2010-03-28T13:13:19Z</time>
      </trkpt>
      <trkpt lat="45.2200741" lon="7.5638680">
        <ele>346.2120361</ele>
        <time>2010-03-28T13:13:43Z</time>
      </trkpt>
      <trkpt lat="45.2202802" lon="7.5635264">
        <ele>346.2120361</ele>
        <time>2010-03-28T13:14:01Z</time>
      </trkpt>
      <trkpt lat="45.2203017" lon="7.5635166">
        <ele>346.2120361</ele>
        <time>2010-03-28T13:14:27Z</time>
      </trkpt>
      <trkpt lat="45.2207287" lon="7.5633681">
        <ele>347.1732178</ele>
        <time>2010-03-28T13:14:43Z</time>
      </trkpt>
      <trkpt lat="45.2208743" lon="7.5633749">
        <ele>347.1732178</ele>
        <time>2010-03-28T13:14:59Z</time>
      </trkpt>
      <trkpt lat="45.2208981" lon="7.5633620">
        <ele>347.1732178</ele>
        <time>2010-03-28T13:15:01Z</time>
      </trkpt>
      <trkpt lat="45.2210786" lon="7.5633243">
        <ele>348.1346436</ele>
        <time>2010-03-28T13:15:13Z</time>
      </trkpt>
      <trkpt lat="45.2216200" lon="7.5631172">
        <ele>348.6152344</ele>
        <time>2010-03-28T13:15:33Z</time>
      </trkpt>
      <trkpt lat="45.2218063" lon="7.5633930">
        <ele>349.0958252</ele>
        <time>2010-03-28T13:15:48Z</time>
      </trkpt>
      <trkpt lat="45.2220043" lon="7.5638635">
        <ele>349.5765381</ele>
        <time>2010-03-28T13:16:07Z</time>
      </trkpt>
      <trkpt lat="45.2224196" lon="7.5641468">
        <ele>351.0184326</ele>
        <time>2010-03-28T13:16:25Z</time>
      </trkpt>
      <trkpt lat="45.2229848" lon="7.5640634">
        <ele>351.9798584</ele>
        <time>2010-03-28T13:16:45Z</time>
      </trkpt>
      <trkpt lat="45.2234201" lon="7.5640024">
        <ele>351.9798584</ele>
        <time>2010-03-28T13:17:06Z</time>
      </trkpt>
      <trkpt lat="45.2238575" lon="7.5639626">
        <ele>353.9025879</ele>
        <time>2010-03-28T13:17:25Z</time>
      </trkpt>
      <trkpt lat="45.2243622" lon="7.5638906">
        <ele>353.9025879</ele>
        <time>2010-03-28T13:17:43Z</time>
      </trkpt>
      <trkpt lat="45.2249547" lon="7.5640625">
        <ele>354.3831787</ele>
        <time>2010-03-28T13:18:02Z</time>
      </trkpt>
      <trkpt lat="45.2253097" lon="7.5636903">
        <ele>355.8251953</ele>
        <time>2010-03-28T13:18:20Z</time>
      </trkpt>
      <trkpt lat="45.2258263" lon="7.5635350">
        <ele>356.3057861</ele>
        <time>2010-03-28T13:18:41Z</time>
      </trkpt>
      <trkpt lat="45.2262990" lon="7.5636056">
        <ele>357.2670898</ele>
        <time>2010-03-28T13:19:00Z</time>
      </trkpt>
      <trkpt lat="45.2267176" lon="7.5639527">
        <ele>357.7478027</ele>
        <time>2010-03-28T13:19:18Z</time>
      </trkpt>
      <trkpt lat="45.2271976" lon="7.5643329">
        <ele>358.2283936</ele>
        <time>2010-03-28T13:19:38Z</time>
      </trkpt>
      <trkpt lat="45.2278159" lon="7.5645760">
        <ele>357.7478027</ele>
        <time>2010-03-28T13:19:58Z</time>
      </trkpt>
      <trkpt lat="45.2284214" lon="7.5646511">
        <ele>358.7089844</ele>
        <time>2010-03-28T13:20:20Z</time>
      </trkpt>
      <trkpt lat="45.2288897" lon="7.5642905">
        <ele>360.6317139</ele>
        <time>2010-03-28T13:20:43Z</time>
      </trkpt>
      <trkpt lat="45.2292076" lon="7.5639308">
        <ele>360.6317139</ele>
        <time>2010-03-28T13:21:02Z</time>
      </trkpt>
      <trkpt lat="45.2295482" lon="7.5636146">
        <ele>362.0737305</ele>
        <time>2010-03-28T13:21:21Z</time>
      </trkpt>
      <trkpt lat="45.2300294" lon="7.5635671">
        <ele>362.0737305</ele>
        <time>2010-03-28T13:21:41Z</time>
      </trkpt>
      <trkpt lat="45.2306030" lon="7.5639329">
        <ele>362.0737305</ele>
        <time>2010-03-28T13:22:06Z</time>
      </trkpt>
      <trkpt lat="45.2309432" lon="7.5646243">
        <ele>363.5157471</ele>
        <time>2010-03-28T13:22:29Z</time>
      </trkpt>
      <trkpt lat="45.2313088" lon="7.5648994">
        <ele>365.4383545</ele>
        <time>2010-03-28T13:22:47Z</time>
      </trkpt>
      <trkpt lat="45.2316171" lon="7.5650385">
        <ele>367.3609619</ele>
        <time>2010-03-28T13:23:01Z</time>
      </trkpt>
      <trkpt lat="45.2316247" lon="7.5650613">
        <ele>366.3995361</ele>
        <time>2010-03-28T13:23:03Z</time>
      </trkpt>
      <trkpt lat="45.2316066" lon="7.5651289">
        <ele>366.8802490</ele>
        <time>2010-03-28T13:23:07Z</time>
      </trkpt>
      <trkpt lat="45.2314635" lon="7.5656729">
        <ele>367.3609619</ele>
        <time>2010-03-28T13:23:32Z</time>
      </trkpt>
      <trkpt lat="45.2312645" lon="7.5663887">
        <ele>367.3609619</ele>
        <time>2010-03-28T13:23:54Z</time>
      </trkpt>
      <trkpt lat="45.2312255" lon="7.5665239">
        <ele>366.3995361</ele>
        <time>2010-03-28T13:23:59Z</time>
      </trkpt>
      <trkpt lat="45.2313112" lon="7.5666353">
        <ele>366.8802490</ele>
        <time>2010-03-28T13:24:04Z</time>
      </trkpt>
      <trkpt lat="45.2316809" lon="7.5672125">
        <ele>367.8415527</ele>
        <time>2010-03-28T13:24:24Z</time>
      </trkpt>
      <trkpt lat="45.2321013" lon="7.5677910">
        <ele>366.8802490</ele>
        <time>2010-03-28T13:24:42Z</time>
      </trkpt>
      <trkpt lat="45.2326914" lon="7.5685929">
        <ele>366.8802490</ele>
        <time>2010-03-28T13:25:08Z</time>
      </trkpt>
      <trkpt lat="45.2327463" lon="7.5692087">
        <ele>366.8802490</ele>
        <time>2010-03-28T13:25:24Z</time>
      </trkpt>
      <trkpt lat="45.2323516" lon="7.5703292">
        <ele>365.9189453</ele>
        <time>2010-03-28T13:25:48Z</time>
      </trkpt>
      <trkpt lat="45.2319530" lon="7.5713283">
        <ele>365.4383545</ele>
        <time>2010-03-28T13:26:09Z</time>
      </trkpt>
      <trkpt lat="45.2315092" lon="7.5723091">
        <ele>364.4769287</ele>
        <time>2010-03-28T13:26:26Z</time>
      </trkpt>
      <trkpt lat="45.2315804" lon="7.5725536">
        <ele>364.9576416</ele>
        <time>2010-03-28T13:26:31Z</time>
      </trkpt>
      <trkpt lat="45.2319864" lon="7.5732231">
        <ele>364.4769287</ele>
        <time>2010-03-28T13:26:48Z</time>
      </trkpt>
      <trkpt lat="45.2320019" lon="7.5733838">
        <ele>364.4769287</ele>
        <time>2010-03-28T13:26:51Z</time>
      </trkpt>
      <trkpt lat="45.2319780" lon="7.5738643">
        <ele>363.5157471</ele>
        <time>2010-03-28T13:26:58Z</time>
      </trkpt>
      <trkpt lat="45.2319993" lon="7.5740026">
        <ele>363.5157471</ele>
        <time>2010-03-28T13:27:00Z</time>
      </trkpt>
      <trkpt lat="45.2320867" lon="7.5745172">
        <ele>363.0350342</ele>
        <time>2010-03-28T13:27:08Z</time>
      </trkpt>
      <trkpt lat="45.2322246" lon="7.5760653">
        <ele>363.0350342</ele>
        <time>2010-03-28T13:27:32Z</time>
      </trkpt>
      <trkpt lat="45.2322864" lon="7.5763130">
        <ele>362.0737305</ele>
        <time>2010-03-28T13:27:39Z</time>
      </trkpt>
      <trkpt lat="45.2322558" lon="7.5764283">
        <ele>362.0737305</ele>
        <time>2010-03-28T13:27:44Z</time>
      </trkpt>
      <trkpt lat="45.2321639" lon="7.5765293">
        <ele>362.0737305</ele>
        <time>2010-03-28T13:28:05Z</time>
      </trkpt>
      <trkpt lat="45.2321769" lon="7.5765153">
        <ele>361.5931396</ele>
        <time>2010-03-28T13:30:09Z</time>
      </trkpt>
      <trkpt lat="45.2321512" lon="7.5765578">
        <ele>361.5931396</ele>
        <time>2010-03-28T13:42:00Z</time>
      </trkpt>
      <trkpt lat="45.2321520" lon="7.5765614">
        <ele>362.0737305</ele>
        <time>2010-03-28T13:42:37Z</time>
      </trkpt>
      <trkpt lat="45.2318917" lon="7.5770282">
        <ele>362.5543213</ele>
        <time>2010-03-28T13:42:53Z</time>
      </trkpt>
      <trkpt lat="45.2315165" lon="7.5776624">
        <ele>361.5931396</ele>
        <time>2010-03-28T13:43:14Z</time>
      </trkpt>
      <trkpt lat="45.2311397" lon="7.5784335">
        <ele>360.6317139</ele>
        <time>2010-03-28T13:43:30Z</time>
      </trkpt>
      <trkpt lat="45.2310581" lon="7.5786010">
        <ele>361.1124268</ele>
        <time>2010-03-28T13:43:33Z</time>
      </trkpt>
      <trkpt lat="45.2309022" lon="7.5787728">
        <ele>360.6317139</ele>
        <time>2010-03-28T13:43:37Z</time>
      </trkpt>
      <trkpt lat="45.2308036" lon="7.5788192">
        <ele>361.1124268</ele>
        <time>2010-03-28T13:43:39Z</time>
      </trkpt>
      <trkpt lat="45.2301328" lon="7.5789079">
        <ele>359.6704102</ele>
        <time>2010-03-28T13:43:53Z</time>
      </trkpt>
      <trkpt lat="45.2293083" lon="7.5789433">
        <ele>358.2283936</ele>
        <time>2010-03-28T13:44:15Z</time>
      </trkpt>
      <trkpt lat="45.2287673" lon="7.5795481">
        <ele>358.2283936</ele>
        <time>2010-03-28T13:44:34Z</time>
      </trkpt>
      <trkpt lat="45.2279234" lon="7.5801169">
        <ele>357.2670898</ele>
        <time>2010-03-28T13:44:56Z</time>
      </trkpt>
      <trkpt lat="45.2269399" lon="7.5804755">
        <ele>355.8251953</ele>
        <time>2010-03-28T13:45:22Z</time>
      </trkpt>
      <trkpt lat="45.2266769" lon="7.5806260">
        <ele>355.3444824</ele>
        <time>2010-03-28T13:45:29Z</time>
      </trkpt>
      <trkpt lat="45.2258492" lon="7.5812951">
        <ele>354.3831787</ele>
        <time>2010-03-28T13:45:51Z</time>
      </trkpt>
      <trkpt lat="45.2254473" lon="7.5816138">
        <ele>353.9025879</ele>
        <time>2010-03-28T13:46:01Z</time>
      </trkpt>
      <trkpt lat="45.2252655" lon="7.5817680">
        <ele>352.9411621</ele>
        <time>2010-03-28T13:46:06Z</time>
      </trkpt>
      <trkpt lat="45.2246236" lon="7.5823244">
        <ele>352.4605713</ele>
        <time>2010-03-28T13:46:26Z</time>
      </trkpt>
      <trkpt lat="45.2240308" lon="7.5825610">
        <ele>352.4605713</ele>
        <time>2010-03-28T13:46:43Z</time>
      </trkpt>
      <trkpt lat="45.2239490" lon="7.5825408">
        <ele>351.9798584</ele>
        <time>2010-03-28T13:46:45Z</time>
      </trkpt>
      <trkpt lat="45.2237997" lon="7.5824476">
        <ele>351.4991455</ele>
        <time>2010-03-28T13:46:49Z</time>
      </trkpt>
      <trkpt lat="45.2233869" lon="7.5818519">
        <ele>348.6152344</ele>
        <time>2010-03-28T13:46:59Z</time>
      </trkpt>
      <trkpt lat="45.2230177" lon="7.5813050">
        <ele>345.2506104</ele>
        <time>2010-03-28T13:47:06Z</time>
      </trkpt>
      <trkpt lat="45.2229227" lon="7.5811232">
        <ele>344.2894287</ele>
        <time>2010-03-28T13:47:08Z</time>
      </trkpt>
      <trkpt lat="45.2220858" lon="7.5798017">
        <ele>344.2894287</ele>
        <time>2010-03-28T13:47:27Z</time>
      </trkpt>
      <trkpt lat="45.2216065" lon="7.5786112">
        <ele>344.7700195</ele>
        <time>2010-03-28T13:47:48Z</time>
      </trkpt>
      <trkpt lat="45.2211764" lon="7.5775606">
        <ele>343.8085938</ele>
        <time>2010-03-28T13:48:11Z</time>
      </trkpt>
      <trkpt lat="45.2210356" lon="7.5775887">
        <ele>344.2894287</ele>
        <time>2010-03-28T13:48:16Z</time>
      </trkpt>
      <trkpt lat="45.2203051" lon="7.5789148">
        <ele>343.3278809</ele>
        <time>2010-03-28T13:48:41Z</time>
      </trkpt>
      <trkpt lat="45.2194474" lon="7.5800615">
        <ele>340.9246826</ele>
        <time>2010-03-28T13:49:07Z</time>
      </trkpt>
      <trkpt lat="45.2184459" lon="7.5809739">
        <ele>339.9633789</ele>
        <time>2010-03-28T13:49:36Z</time>
      </trkpt>
      <trkpt lat="45.2177183" lon="7.5816690">
        <ele>338.5214844</ele>
        <time>2010-03-28T13:50:01Z</time>
      </trkpt>
      <trkpt lat="45.2174819" lon="7.5821779">
        <ele>338.5214844</ele>
        <time>2010-03-28T13:50:13Z</time>
      </trkpt>
      <trkpt lat="45.2174389" lon="7.5822718">
        <ele>337.5600586</ele>
        <time>2010-03-28T13:50:15Z</time>
      </trkpt>
      <trkpt lat="45.2167114" lon="7.5836838">
        <ele>336.5988770</ele>
        <time>2010-03-28T13:50:42Z</time>
      </trkpt>
      <trkpt lat="45.2161313" lon="7.5848039">
        <ele>335.1567383</ele>
        <time>2010-03-28T13:51:08Z</time>
      </trkpt>
      <trkpt lat="45.2154345" lon="7.5861736">
        <ele>333.7147217</ele>
        <time>2010-03-28T13:51:41Z</time>
      </trkpt>
      <trkpt lat="45.2148462" lon="7.5873024">
        <ele>332.7535400</ele>
        <time>2010-03-28T13:52:07Z</time>
      </trkpt>
      <trkpt lat="45.2141324" lon="7.5886820">
        <ele>331.3115234</ele>
        <time>2010-03-28T13:52:37Z</time>
      </trkpt>
      <trkpt lat="45.2140870" lon="7.5887723">
        <ele>330.8309326</ele>
        <time>2010-03-28T13:53:04Z</time>
      </trkpt>
      <trkpt lat="45.2138011" lon="7.5890317">
        <ele>330.3502197</ele>
        <time>2010-03-28T13:53:45Z</time>
      </trkpt>
      <trkpt lat="45.2135680" lon="7.5891676">
        <ele>330.3502197</ele>
        <time>2010-03-28T13:53:51Z</time>
      </trkpt>
      <trkpt lat="45.2133056" lon="7.5897075">
        <ele>329.8695068</ele>
        <time>2010-03-28T13:54:03Z</time>
      </trkpt>
      <trkpt lat="45.2134647" lon="7.5908144">
        <ele>330.3502197</ele>
        <time>2010-03-28T13:54:22Z</time>
      </trkpt>
      <trkpt lat="45.2134034" lon="7.5911044">
        <ele>332.2728271</ele>
        <time>2010-03-28T13:54:28Z</time>
      </trkpt>
      <trkpt lat="45.2133786" lon="7.5911249">
        <ele>332.7535400</ele>
        <time>2010-03-28T13:54:29Z</time>
      </trkpt>
      <trkpt lat="45.2128259" lon="7.5919843">
        <ele>333.2341309</ele>
        <time>2010-03-28T13:54:50Z</time>
      </trkpt>
      <trkpt lat="45.2128019" lon="7.5920304">
        <ele>332.7535400</ele>
        <time>2010-03-28T13:54:51Z</time>
      </trkpt>
      <trkpt lat="45.2120328" lon="7.5929462">
        <ele>330.8309326</ele>
        <time>2010-03-28T13:55:14Z</time>
      </trkpt>
      <trkpt lat="45.2113914" lon="7.5933432">
        <ele>330.8309326</ele>
        <time>2010-03-28T13:55:29Z</time>
      </trkpt>
      <trkpt lat="45.2104732" lon="7.5946870">
        <ele>329.3889160</ele>
        <time>2010-03-28T13:55:57Z</time>
      </trkpt>
      <trkpt lat="45.2096397" lon="7.5959521">
        <ele>328.4276123</ele>
        <time>2010-03-28T13:56:23Z</time>
      </trkpt>
      <trkpt lat="45.2085901" lon="7.5968009">
        <ele>326.9855957</ele>
        <time>2010-03-28T13:56:47Z</time>
      </trkpt>
      <trkpt lat="45.2073835" lon="7.5975084">
        <ele>325.0629883</ele>
        <time>2010-03-28T13:57:13Z</time>
      </trkpt>
      <trkpt lat="45.2067000" lon="7.5975746">
        <ele>324.5822754</ele>
        <time>2010-03-28T13:57:25Z</time>
      </trkpt>
      <trkpt lat="45.2054714" lon="7.5976957">
        <ele>323.1403809</ele>
        <time>2010-03-28T13:57:48Z</time>
      </trkpt>
      <trkpt lat="45.2054233" lon="7.5976963">
        <ele>322.6596680</ele>
        <time>2010-03-28T13:57:49Z</time>
      </trkpt>
      <trkpt lat="45.2052327" lon="7.5976516">
        <ele>322.1789551</ele>
        <time>2010-03-28T13:57:53Z</time>
      </trkpt>
      <trkpt lat="45.2049781" lon="7.5977578">
        <ele>322.6596680</ele>
        <time>2010-03-28T13:57:59Z</time>
      </trkpt>
      <trkpt lat="45.2043291" lon="7.5986114">
        <ele>322.6596680</ele>
        <time>2010-03-28T13:58:17Z</time>
      </trkpt>
      <trkpt lat="45.2042677" lon="7.5987249">
        <ele>322.6596680</ele>
        <time>2010-03-28T13:58:19Z</time>
      </trkpt>
      <trkpt lat="45.2040673" lon="7.5993878">
        <ele>322.1789551</ele>
        <time>2010-03-28T13:58:29Z</time>
      </trkpt>
      <trkpt lat="45.2041065" lon="7.5997022">
        <ele>322.6596680</ele>
        <time>2010-03-28T13:58:34Z</time>
      </trkpt>
      <trkpt lat="45.2041993" lon="7.5998690">
        <ele>322.1789551</ele>
        <time>2010-03-28T13:58:38Z</time>
      </trkpt>
      <trkpt lat="45.2043246" lon="7.6000657">
        <ele>321.6983643</ele>
        <time>2010-03-28T13:58:43Z</time>
      </trkpt>
      <trkpt lat="45.2043107" lon="7.6002200">
        <ele>321.6983643</ele>
        <time>2010-03-28T13:58:46Z</time>
      </trkpt>
      <trkpt lat="45.2041936" lon="7.6004057">
        <ele>321.6983643</ele>
        <time>2010-03-28T13:58:50Z</time>
      </trkpt>
      <trkpt lat="45.2033432" lon="7.6013521">
        <ele>320.2563477</ele>
        <time>2010-03-28T13:59:11Z</time>
      </trkpt>
      <trkpt lat="45.2025960" lon="7.6021224">
        <ele>319.2950439</ele>
        <time>2010-03-28T13:59:28Z</time>
      </trkpt>
      <trkpt lat="45.2019320" lon="7.6027896">
        <ele>318.8143311</ele>
        <time>2010-03-28T13:59:45Z</time>
      </trkpt>
      <trkpt lat="45.2016921" lon="7.6033130">
        <ele>318.3336182</ele>
        <time>2010-03-28T13:59:54Z</time>
      </trkpt>
      <trkpt lat="45.2008937" lon="7.6047370">
        <ele>316.4110107</ele>
        <time>2010-03-28T14:00:19Z</time>
      </trkpt>
      <trkpt lat="45.2008296" lon="7.6048479">
        <ele>315.9304199</ele>
        <time>2010-03-28T14:00:21Z</time>
      </trkpt>
      <trkpt lat="45.2005598" lon="7.6049154">
        <ele>314.9691162</ele>
        <time>2010-03-28T14:00:27Z</time>
      </trkpt>
      <trkpt lat="45.2001383" lon="7.6046225">
        <ele>314.4884033</ele>
        <time>2010-03-28T14:00:35Z</time>
      </trkpt>
      <trkpt lat="45.1999114" lon="7.6047783">
        <ele>314.9691162</ele>
        <time>2010-03-28T14:00:41Z</time>
      </trkpt>
      <trkpt lat="45.1993645" lon="7.6061689">
        <ele>313.5272217</ele>
        <time>2010-03-28T14:01:01Z</time>
      </trkpt>
      <trkpt lat="45.1989663" lon="7.6069495">
        <ele>312.5657959</ele>
        <time>2010-03-28T14:01:14Z</time>
      </trkpt>
      <trkpt lat="45.1986146" lon="7.6077160">
        <ele>313.5272217</ele>
        <time>2010-03-28T14:01:27Z</time>
      </trkpt>
      <trkpt lat="45.1980767" lon="7.6089008">
        <ele>313.0465088</ele>
        <time>2010-03-28T14:01:47Z</time>
      </trkpt>
      <trkpt lat="45.1975476" lon="7.6101296">
        <ele>312.0852051</ele>
        <time>2010-03-28T14:02:09Z</time>
      </trkpt>
      <trkpt lat="45.1972238" lon="7.6109271">
        <ele>310.6430664</ele>
        <time>2010-03-28T14:02:23Z</time>
      </trkpt>
      <trkpt lat="45.1967244" lon="7.6125535">
        <ele>309.2011719</ele>
        <time>2010-03-28T14:02:49Z</time>
      </trkpt>
      <trkpt lat="45.1966946" lon="7.6138145">
        <ele>310.1624756</ele>
        <time>2010-03-28T14:03:11Z</time>
      </trkpt>
      <trkpt lat="45.1962128" lon="7.6147535">
        <ele>309.6818848</ele>
        <time>2010-03-28T14:03:31Z</time>
      </trkpt>
      <trkpt lat="45.1955696" lon="7.6153985">
        <ele>308.7204590</ele>
        <time>2010-03-28T14:03:47Z</time>
      </trkpt>
      <trkpt lat="45.1950141" lon="7.6159212">
        <ele>307.2785645</ele>
        <time>2010-03-28T14:04:02Z</time>
      </trkpt>
      <trkpt lat="45.1942028" lon="7.6169911">
        <ele>306.3172607</ele>
        <time>2010-03-28T14:04:24Z</time>
      </trkpt>
      <trkpt lat="45.1931295" lon="7.6183307">
        <ele>304.3946533</ele>
        <time>2010-03-28T14:04:52Z</time>
      </trkpt>
      <trkpt lat="45.1921716" lon="7.6195277">
        <ele>302.9525146</ele>
        <time>2010-03-28T14:05:18Z</time>
      </trkpt>
      <trkpt lat="45.1913242" lon="7.6205778">
        <ele>301.5106201</ele>
        <time>2010-03-28T14:05:44Z</time>
      </trkpt>
      <trkpt lat="45.1906040" lon="7.6214698">
        <ele>300.5493164</ele>
        <time>2010-03-28T14:06:03Z</time>
      </trkpt>
      <trkpt lat="45.1896159" lon="7.6227007">
        <ele>299.1072998</ele>
        <time>2010-03-28T14:06:29Z</time>
      </trkpt>
      <trkpt lat="45.1894423" lon="7.6229321">
        <ele>298.1461182</ele>
        <time>2010-03-28T14:06:34Z</time>
      </trkpt>
      <trkpt lat="45.1890713" lon="7.6228662">
        <ele>297.1846924</ele>
        <time>2010-03-28T14:06:42Z</time>
      </trkpt>
      <trkpt lat="45.1887244" lon="7.6224823">
        <ele>297.1846924</ele>
        <time>2010-03-28T14:06:49Z</time>
      </trkpt>
      <trkpt lat="45.1883644" lon="7.6224707">
        <ele>296.7041016</ele>
        <time>2010-03-28T14:06:56Z</time>
      </trkpt>
      <trkpt lat="45.1880732" lon="7.6226603">
        <ele>296.2235107</ele>
        <time>2010-03-28T14:07:02Z</time>
      </trkpt>
      <trkpt lat="45.1879829" lon="7.6227043">
        <ele>296.2235107</ele>
        <time>2010-03-28T14:07:04Z</time>
      </trkpt>
      <trkpt lat="45.1874312" lon="7.6226860">
        <ele>295.2619629</ele>
        <time>2010-03-28T14:07:14Z</time>
      </trkpt>
      <trkpt lat="45.1864650" lon="7.6233834">
        <ele>294.3007813</ele>
        <time>2010-03-28T14:07:34Z</time>
      </trkpt>
      <trkpt lat="45.1856107" lon="7.6243132">
        <ele>293.3393555</ele>
        <time>2010-03-28T14:07:55Z</time>
      </trkpt>
      <trkpt lat="45.1850351" lon="7.6248188">
        <ele>292.3781738</ele>
        <time>2010-03-28T14:08:09Z</time>
      </trkpt>
      <trkpt lat="45.1838410" lon="7.6251787">
        <ele>290.9361572</ele>
        <time>2010-03-28T14:08:31Z</time>
      </trkpt>
      <trkpt lat="45.1822995" lon="7.6252238">
        <ele>290.4555664</ele>
        <time>2010-03-28T14:08:59Z</time>
      </trkpt>
      <trkpt lat="45.1818168" lon="7.6252088">
        <ele>289.9748535</ele>
        <time>2010-03-28T14:09:09Z</time>
      </trkpt>
      <trkpt lat="45.1815812" lon="7.6253538">
        <ele>289.4941406</ele>
        <time>2010-03-28T14:09:14Z</time>
      </trkpt>
      <trkpt lat="45.1807067" lon="7.6266058">
        <ele>288.0522461</ele>
        <time>2010-03-28T14:09:36Z</time>
      </trkpt>
      <trkpt lat="45.1806490" lon="7.6268666">
        <ele>287.5714111</ele>
        <time>2010-03-28T14:09:40Z</time>
      </trkpt>
      <trkpt lat="45.1806572" lon="7.6271518">
        <ele>287.5714111</ele>
        <time>2010-03-28T14:09:44Z</time>
      </trkpt>
      <trkpt lat="45.1804813" lon="7.6273574">
        <ele>286.6102295</ele>
        <time>2010-03-28T14:09:49Z</time>
      </trkpt>
      <trkpt lat="45.1790644" lon="7.6276718">
        <ele>285.1682129</ele>
        <time>2010-03-28T14:10:14Z</time>
      </trkpt>
      <trkpt lat="45.1783401" lon="7.6278538">
        <ele>284.6876221</ele>
        <time>2010-03-28T14:10:29Z</time>
      </trkpt>
      <trkpt lat="45.1775975" lon="7.6280149">
        <ele>284.2069092</ele>
        <time>2010-03-28T14:10:42Z</time>
      </trkpt>
      <trkpt lat="45.1773960" lon="7.6281743">
        <ele>283.7261963</ele>
        <time>2010-03-28T14:10:46Z</time>
      </trkpt>
      <trkpt lat="45.1762502" lon="7.6290738">
        <ele>283.2456055</ele>
        <time>2010-03-28T14:11:10Z</time>
      </trkpt>
      <trkpt lat="45.1758895" lon="7.6291799">
        <ele>282.7650146</ele>
        <time>2010-03-28T14:11:17Z</time>
      </trkpt>
      <trkpt lat="45.1750034" lon="7.6297954">
        <ele>282.7650146</ele>
        <time>2010-03-28T14:11:38Z</time>
      </trkpt>
      <trkpt lat="45.1748480" lon="7.6299879">
        <ele>282.2843018</ele>
        <time>2010-03-28T14:11:43Z</time>
      </trkpt>
      <trkpt lat="45.1741516" lon="7.6315149">
        <ele>281.3229980</ele>
        <time>2010-03-28T14:12:10Z</time>
      </trkpt>
      <trkpt lat="45.1736900" lon="7.6329831">
        <ele>280.3616943</ele>
        <time>2010-03-28T14:12:34Z</time>
      </trkpt>
      <trkpt lat="45.1735102" lon="7.6330934">
        <ele>280.3616943</ele>
        <time>2010-03-28T14:12:39Z</time>
      </trkpt>
      <trkpt lat="45.1727210" lon="7.6332400">
        <ele>278.9196777</ele>
        <time>2010-03-28T14:12:55Z</time>
      </trkpt>
      <trkpt lat="45.1725333" lon="7.6334436">
        <ele>279.4002686</ele>
        <time>2010-03-28T14:13:01Z</time>
      </trkpt>
      <trkpt lat="45.1723179" lon="7.6340380">
        <ele>278.4389648</ele>
        <time>2010-03-28T14:13:11Z</time>
      </trkpt>
      <trkpt lat="45.1717370" lon="7.6350092">
        <ele>278.9196777</ele>
        <time>2010-03-28T14:13:30Z</time>
      </trkpt>
      <trkpt lat="45.1712912" lon="7.6353276">
        <ele>276.9970703</ele>
        <time>2010-03-28T14:13:40Z</time>
      </trkpt>
      <trkpt lat="45.1710471" lon="7.6353083">
        <ele>277.9582520</ele>
        <time>2010-03-28T14:13:45Z</time>
      </trkpt>
      <trkpt lat="45.1708516" lon="7.6352318">
        <ele>277.4776611</ele>
        <time>2010-03-28T14:13:49Z</time>
      </trkpt>
      <trkpt lat="45.1707501" lon="7.6352059">
        <ele>276.9970703</ele>
        <time>2010-03-28T14:13:51Z</time>
      </trkpt>
      <trkpt lat="45.1705065" lon="7.6353645">
        <ele>276.5163574</ele>
        <time>2010-03-28T14:13:56Z</time>
      </trkpt>
      <trkpt lat="45.1700286" lon="7.6363654">
        <ele>275.5550537</ele>
        <time>2010-03-28T14:14:15Z</time>
      </trkpt>
      <trkpt lat="45.1694986" lon="7.6374582">
        <ele>274.5937500</ele>
        <time>2010-03-28T14:14:35Z</time>
      </trkpt>
      <trkpt lat="45.1694196" lon="7.6376166">
        <ele>274.5937500</ele>
        <time>2010-03-28T14:14:38Z</time>
      </trkpt>
      <trkpt lat="45.1691772" lon="7.6377362">
        <ele>274.5937500</ele>
        <time>2010-03-28T14:14:44Z</time>
      </trkpt>
      <trkpt lat="45.1682359" lon="7.6372270">
        <ele>274.1130371</ele>
        <time>2010-03-28T14:15:05Z</time>
      </trkpt>
      <trkpt lat="45.1679880" lon="7.6371681">
        <ele>274.5937500</ele>
        <time>2010-03-28T14:15:10Z</time>
      </trkpt>
      <trkpt lat="45.1676780" lon="7.6371947">
        <ele>274.5937500</ele>
        <time>2010-03-28T14:15:17Z</time>
      </trkpt>
      <trkpt lat="45.1674149" lon="7.6375050">
        <ele>274.1130371</ele>
        <time>2010-03-28T14:15:24Z</time>
      </trkpt>
      <trkpt lat="45.1670999" lon="7.6380490">
        <ele>273.1518555</ele>
        <time>2010-03-28T14:15:34Z</time>
      </trkpt>
      <trkpt lat="45.1664822" lon="7.6396178">
        <ele>272.1904297</ele>
        <time>2010-03-28T14:15:59Z</time>
      </trkpt>
      <trkpt lat="45.1659273" lon="7.6410437">
        <ele>270.7484131</ele>
        <time>2010-03-28T14:16:24Z</time>
      </trkpt>
      <trkpt lat="45.1653242" lon="7.6424227">
        <ele>270.7484131</ele>
        <time>2010-03-28T14:16:51Z</time>
      </trkpt>
      <trkpt lat="45.1649170" lon="7.6433519">
        <ele>269.7871094</ele>
        <time>2010-03-28T14:17:09Z</time>
      </trkpt>
      <trkpt lat="45.1647340" lon="7.6432914">
        <ele>269.3065186</ele>
        <time>2010-03-28T14:17:14Z</time>
      </trkpt>
      <trkpt lat="45.1635211" lon="7.6422095">
        <ele>268.3450928</ele>
        <time>2010-03-28T14:17:42Z</time>
      </trkpt>
      <trkpt lat="45.1634838" lon="7.6421700">
        <ele>268.3450928</ele>
        <time>2010-03-28T14:17:43Z</time>
      </trkpt>
      <trkpt lat="45.1624844" lon="7.6412682">
        <ele>267.3839111</ele>
        <time>2010-03-28T14:18:09Z</time>
      </trkpt>
      <trkpt lat="45.1615542" lon="7.6404134">
        <ele>267.8645020</ele>
        <time>2010-03-28T14:18:33Z</time>
      </trkpt>
      <trkpt lat="45.1603963" lon="7.6393966">
        <ele>265.4613037</ele>
        <time>2010-03-28T14:18:57Z</time>
      </trkpt>
      <trkpt lat="45.1590491" lon="7.6381803">
        <ele>264.9805908</ele>
        <time>2010-03-28T14:19:26Z</time>
      </trkpt>
      <trkpt lat="45.1586507" lon="7.6378046">
        <ele>264.0192871</ele>
        <time>2010-03-28T14:19:36Z</time>
      </trkpt>
      <trkpt lat="45.1584237" lon="7.6377619">
        <ele>264.0192871</ele>
        <time>2010-03-28T14:19:41Z</time>
      </trkpt>
      <trkpt lat="45.1581582" lon="7.6379051">
        <ele>264.0192871</ele>
        <time>2010-03-28T14:19:46Z</time>
      </trkpt>
      <trkpt lat="45.1574033" lon="7.6389019">
        <ele>262.5771484</ele>
        <time>2010-03-28T14:20:07Z</time>
      </trkpt>
      <trkpt lat="45.1568296" lon="7.6397413">
        <ele>262.0965576</ele>
        <time>2010-03-28T14:20:25Z</time>
      </trkpt>
      <trkpt lat="45.1560391" lon="7.6408453">
        <ele>261.6159668</ele>
        <time>2010-03-28T14:20:46Z</time>
      </trkpt>
      <trkpt lat="45.1556312" lon="7.6414594">
        <ele>261.1352539</ele>
        <time>2010-03-28T14:20:58Z</time>
      </trkpt>
      <trkpt lat="45.1545397" lon="7.6429377">
        <ele>260.6545410</ele>
        <time>2010-03-28T14:21:27Z</time>
      </trkpt>
      <trkpt lat="45.1539381" lon="7.6438072">
        <ele>260.6545410</ele>
        <time>2010-03-28T14:21:47Z</time>
      </trkpt>
      <trkpt lat="45.1534059" lon="7.6439999">
        <ele>260.6545410</ele>
        <time>2010-03-28T14:22:00Z</time>
      </trkpt>
      <trkpt lat="45.1533743" lon="7.6444413">
        <ele>261.1352539</ele>
        <time>2010-03-28T14:22:08Z</time>
      </trkpt>
      <trkpt lat="45.1530662" lon="7.6449887">
        <ele>259.2126465</ele>
        <time>2010-03-28T14:22:21Z</time>
      </trkpt>
      <trkpt lat="45.1528513" lon="7.6452423">
        <ele>259.2126465</ele>
        <time>2010-03-28T14:22:26Z</time>
      </trkpt>
      <trkpt lat="45.1518161" lon="7.6467785">
        <ele>257.7707520</ele>
        <time>2010-03-28T14:22:54Z</time>
      </trkpt>
      <trkpt lat="45.1509729" lon="7.6474184">
        <ele>257.2900391</ele>
        <time>2010-03-28T14:23:14Z</time>
      </trkpt>
      <trkpt lat="45.1497702" lon="7.6476282">
        <ele>257.2900391</ele>
        <time>2010-03-28T14:23:39Z</time>
      </trkpt>
      <trkpt lat="45.1486993" lon="7.6477973">
        <ele>255.8480225</ele>
        <time>2010-03-28T14:24:02Z</time>
      </trkpt>
      <trkpt lat="45.1474577" lon="7.6479939">
        <ele>255.3673096</ele>
        <time>2010-03-28T14:24:28Z</time>
      </trkpt>
      <trkpt lat="45.1471125" lon="7.6481305">
        <ele>255.3673096</ele>
        <time>2010-03-28T14:24:35Z</time>
      </trkpt>
      <trkpt lat="45.1465582" lon="7.6490413">
        <ele>253.4447021</ele>
        <time>2010-03-28T14:24:53Z</time>
      </trkpt>
      <trkpt lat="45.1462872" lon="7.6496159">
        <ele>250.0802002</ele>
        <time>2010-03-28T14:25:00Z</time>
      </trkpt>
      <trkpt lat="45.1456730" lon="7.6508173">
        <ele>251.0413818</ele>
        <time>2010-03-28T14:25:17Z</time>
      </trkpt>
      <trkpt lat="45.1451426" lon="7.6519242">
        <ele>252.0028076</ele>
        <time>2010-03-28T14:25:41Z</time>
      </trkpt>
      <trkpt lat="45.1450881" lon="7.6520141">
        <ele>251.5220947</ele>
        <time>2010-03-28T14:25:43Z</time>
      </trkpt>
      <trkpt lat="45.1449521" lon="7.6521734">
        <ele>251.5220947</ele>
        <time>2010-03-28T14:25:47Z</time>
      </trkpt>
      <trkpt lat="45.1447903" lon="7.6522843">
        <ele>251.5220947</ele>
        <time>2010-03-28T14:25:51Z</time>
      </trkpt>
      <trkpt lat="45.1445804" lon="7.6523160">
        <ele>251.0413818</ele>
        <time>2010-03-28T14:25:56Z</time>
      </trkpt>
      <trkpt lat="45.1438302" lon="7.6525754">
        <ele>250.0802002</ele>
        <time>2010-03-28T14:26:18Z</time>
      </trkpt>
      <trkpt lat="45.1434563" lon="7.6536650">
        <ele>250.0802002</ele>
        <time>2010-03-28T14:26:42Z</time>
      </trkpt>
      <trkpt lat="45.1435030" lon="7.6550516">
        <ele>249.5994873</ele>
        <time>2010-03-28T14:27:07Z</time>
      </trkpt>
      <trkpt lat="45.1435200" lon="7.6553737">
        <ele>249.5994873</ele>
        <time>2010-03-28T14:27:14Z</time>
      </trkpt>
      <trkpt lat="45.1434433" lon="7.6554400">
        <ele>249.1187744</ele>
        <time>2010-03-28T14:27:18Z</time>
      </trkpt>
      <trkpt lat="45.1429868" lon="7.6551686">
        <ele>248.6381836</ele>
        <time>2010-03-28T14:27:37Z</time>
      </trkpt>
      <trkpt lat="45.1429130" lon="7.6538273">
        <ele>248.1575928</ele>
        <time>2010-03-28T14:27:59Z</time>
      </trkpt>
      <trkpt lat="45.1428795" lon="7.6531658">
        <ele>248.1575928</ele>
        <time>2010-03-28T14:28:13Z</time>
      </trkpt>
      <trkpt lat="45.1426777" lon="7.6531390">
        <ele>248.6381836</ele>
        <time>2010-03-28T14:28:21Z</time>
      </trkpt>
      <trkpt lat="45.1421610" lon="7.6535820">
        <ele>248.1575928</ele>
        <time>2010-03-28T14:28:34Z</time>
      </trkpt>
      <trkpt lat="45.1419179" lon="7.6536359">
        <ele>248.1575928</ele>
        <time>2010-03-28T14:28:40Z</time>
      </trkpt>
      <trkpt lat="45.1416395" lon="7.6531451">
        <ele>247.6767578</ele>
        <time>2010-03-28T14:28:52Z</time>
      </trkpt>
      <trkpt lat="45.1417088" lon="7.6530481">
        <ele>247.6767578</ele>
        <time>2010-03-28T14:28:55Z</time>
      </trkpt>
      <trkpt lat="45.1422300" lon="7.6525275">
        <ele>248.6381836</ele>
        <time>2010-03-28T14:29:15Z</time>
      </trkpt>
      <trkpt lat="45.1426707" lon="7.6521503">
        <ele>249.1187744</ele>
        <time>2010-03-28T14:29:32Z</time>
      </trkpt>
      <trkpt lat="45.1426673" lon="7.6519797">
        <ele>249.1187744</ele>
        <time>2010-03-28T14:29:37Z</time>
      </trkpt>
      <trkpt lat="45.1424428" lon="7.6513207">
        <ele>248.6381836</ele>
        <time>2010-03-28T14:29:58Z</time>
      </trkpt>
      <trkpt lat="45.1423896" lon="7.6508141">
        <ele>249.1187744</ele>
        <time>2010-03-28T14:30:11Z</time>
      </trkpt>
      <trkpt lat="45.1422524" lon="7.6507582">
        <ele>248.6381836</ele>
        <time>2010-03-28T14:30:15Z</time>
      </trkpt>
      <trkpt lat="45.1413531" lon="7.6506300">
        <ele>248.1575928</ele>
        <time>2010-03-28T14:30:41Z</time>
      </trkpt>
      <trkpt lat="45.1408092" lon="7.6504088">
        <ele>247.6767578</ele>
        <time>2010-03-28T14:30:57Z</time>
      </trkpt>
      <trkpt lat="45.1399925" lon="7.6499050">
        <ele>247.1960449</ele>
        <time>2010-03-28T14:31:23Z</time>
      </trkpt>
      <trkpt lat="45.1392714" lon="7.6491376">
        <ele>246.2348633</ele>
        <time>2010-03-28T14:31:43Z</time>
      </trkpt>
      <trkpt lat="45.1387531" lon="7.6484307">
        <ele>246.2348633</ele>
        <time>2010-03-28T14:32:06Z</time>
      </trkpt>
      <trkpt lat="45.1386209" lon="7.6485034">
        <ele>246.7154541</ele>
        <time>2010-03-28T14:32:11Z</time>
      </trkpt>
      <trkpt lat="45.1379365" lon="7.6492429">
        <ele>246.2348633</ele>
        <time>2010-03-28T14:32:34Z</time>
      </trkpt>
      <trkpt lat="45.1378241" lon="7.6493372">
        <ele>245.2734375</ele>
        <time>2010-03-28T14:32:49Z</time>
      </trkpt>
      <trkpt lat="45.1377228" lon="7.6493942">
        <ele>246.2348633</ele>
        <time>2010-03-28T14:51:21Z</time>
      </trkpt>
      <trkpt lat="45.1371095" lon="7.6496858">
        <ele>245.7541504</ele>
        <time>2010-03-28T14:51:41Z</time>
      </trkpt>
      <trkpt lat="45.1363706" lon="7.6499627">
        <ele>244.7928467</ele>
        <time>2010-03-28T14:52:03Z</time>
      </trkpt>
      <trkpt lat="45.1360756" lon="7.6501264">
        <ele>244.7928467</ele>
        <time>2010-03-28T14:52:12Z</time>
      </trkpt>
      <trkpt lat="45.1353121" lon="7.6504694">
        <ele>243.3508301</ele>
        <time>2010-03-28T14:52:34Z</time>
      </trkpt>
      <trkpt lat="45.1345508" lon="7.6508135">
        <ele>243.8315430</ele>
        <time>2010-03-28T14:52:54Z</time>
      </trkpt>
      <trkpt lat="45.1338124" lon="7.6511452">
        <ele>243.3508301</ele>
        <time>2010-03-28T14:53:12Z</time>
      </trkpt>
      <trkpt lat="45.1335155" lon="7.6513086">
        <ele>242.3896484</ele>
        <time>2010-03-28T14:53:20Z</time>
      </trkpt>
      <trkpt lat="45.1330187" lon="7.6515108">
        <ele>242.3896484</ele>
        <time>2010-03-28T14:53:32Z</time>
      </trkpt>
      <trkpt lat="45.1323667" lon="7.6518039">
        <ele>241.9089355</ele>
        <time>2010-03-28T14:53:50Z</time>
      </trkpt>
      <trkpt lat="45.1318414" lon="7.6520367">
        <ele>240.9476318</ele>
        <time>2010-03-28T14:54:06Z</time>
      </trkpt>
      <trkpt lat="45.1313688" lon="7.6522585">
        <ele>240.9476318</ele>
        <time>2010-03-28T14:54:24Z</time>
      </trkpt>
      <trkpt lat="45.1305981" lon="7.6526414">
        <ele>239.9862061</ele>
        <time>2010-03-28T14:54:43Z</time>
      </trkpt>
      <trkpt lat="45.1300595" lon="7.6529594">
        <ele>239.9862061</ele>
        <time>2010-03-28T14:55:00Z</time>
      </trkpt>
      <trkpt lat="45.1300501" lon="7.6529903">
        <ele>240.4670410</ele>
        <time>2010-03-28T14:55:01Z</time>
      </trkpt>
      <trkpt lat="45.1301132" lon="7.6531353">
        <ele>239.5054932</ele>
        <time>2010-03-28T14:55:05Z</time>
      </trkpt>
      <trkpt lat="45.1308315" lon="7.6537132">
        <ele>240.4670410</ele>
        <time>2010-03-28T14:55:30Z</time>
      </trkpt>
      <trkpt lat="45.1308769" lon="7.6537702">
        <ele>240.4670410</ele>
        <time>2010-03-28T14:55:33Z</time>
      </trkpt>
      <trkpt lat="45.1306680" lon="7.6544145">
        <ele>239.9862061</ele>
        <time>2010-03-28T14:55:52Z</time>
      </trkpt>
      <trkpt lat="45.1302088" lon="7.6554337">
        <ele>239.9862061</ele>
        <time>2010-03-28T14:56:18Z</time>
      </trkpt>
      <trkpt lat="45.1298420" lon="7.6563889">
        <ele>239.0249023</ele>
        <time>2010-03-28T14:56:40Z</time>
      </trkpt>
      <trkpt lat="45.1294585" lon="7.6573411">
        <ele>238.0635986</ele>
        <time>2010-03-28T14:57:07Z</time>
      </trkpt>
      <trkpt lat="45.1292038" lon="7.6578774">
        <ele>239.0249023</ele>
        <time>2010-03-28T14:57:28Z</time>
      </trkpt>
      <trkpt lat="45.1284878" lon="7.6583506">
        <ele>239.5054932</ele>
        <time>2010-03-28T14:57:49Z</time>
      </trkpt>
      <trkpt lat="45.1278709" lon="7.6586408">
        <ele>240.9476318</ele>
        <time>2010-03-28T14:58:11Z</time>
      </trkpt>
      <trkpt lat="45.1270430" lon="7.6589511">
        <ele>243.8315430</ele>
        <time>2010-03-28T14:58:38Z</time>
      </trkpt>
      <trkpt lat="45.1261989" lon="7.6592969">
        <ele>244.3122559</ele>
        <time>2010-03-28T14:59:05Z</time>
      </trkpt>
      <trkpt lat="45.1250444" lon="7.6597481">
        <ele>241.4282227</ele>
        <time>2010-03-28T14:59:29Z</time>
      </trkpt>
      <trkpt lat="45.1241320" lon="7.6601105">
        <ele>238.5443115</ele>
        <time>2010-03-28T14:59:43Z</time>
      </trkpt>
      <trkpt lat="45.1228554" lon="7.6606119">
        <ele>236.6217041</ele>
        <time>2010-03-28T15:00:06Z</time>
      </trkpt>
      <trkpt lat="45.1216499" lon="7.6610843">
        <ele>236.6217041</ele>
        <time>2010-03-28T15:00:31Z</time>
      </trkpt>
      <trkpt lat="45.1204002" lon="7.6610548">
        <ele>236.6217041</ele>
        <time>2010-03-28T15:00:55Z</time>
      </trkpt>
      <trkpt lat="45.1188981" lon="7.6606555">
        <ele>237.1022949</ele>
        <time>2010-03-28T15:01:25Z</time>
      </trkpt>
      <trkpt lat="45.1176943" lon="7.6608416">
        <ele>238.0635986</ele>
        <time>2010-03-28T15:01:50Z</time>
      </trkpt>
      <trkpt lat="45.1165398" lon="7.6615834">
        <ele>238.5443115</ele>
        <time>2010-03-28T15:02:16Z</time>
      </trkpt>
      <trkpt lat="45.1154734" lon="7.6620457">
        <ele>239.5054932</ele>
        <time>2010-03-28T15:02:39Z</time>
      </trkpt>
      <trkpt lat="45.1142600" lon="7.6625045">
        <ele>239.9862061</ele>
        <time>2010-03-28T15:03:06Z</time>
      </trkpt>
      <trkpt lat="45.1131782" lon="7.6628878">
        <ele>240.4670410</ele>
        <time>2010-03-28T15:03:31Z</time>
      </trkpt>
      <trkpt lat="45.1123320" lon="7.6631280">
        <ele>240.9476318</ele>
        <time>2010-03-28T15:03:53Z</time>
      </trkpt>
      <trkpt lat="45.1115439" lon="7.6633023">
        <ele>241.4282227</ele>
        <time>2010-03-28T15:04:13Z</time>
      </trkpt>
      <trkpt lat="45.1104858" lon="7.6632816">
        <ele>241.9089355</ele>
        <time>2010-03-28T15:04:38Z</time>
      </trkpt>
      <trkpt lat="45.1093819" lon="7.6632866">
        <ele>241.4282227</ele>
        <time>2010-03-28T15:05:03Z</time>
      </trkpt>
      <trkpt lat="45.1082839" lon="7.6632424">
        <ele>241.4282227</ele>
        <time>2010-03-28T15:05:28Z</time>
      </trkpt>
      <trkpt lat="45.1077779" lon="7.6632108">
        <ele>241.9089355</ele>
        <time>2010-03-28T15:05:40Z</time>
      </trkpt>
      <trkpt lat="45.1071184" lon="7.6631839">
        <ele>242.3896484</ele>
        <time>2010-03-28T15:05:57Z</time>
      </trkpt>
      <trkpt lat="45.1065375" lon="7.6631055">
        <ele>241.9089355</ele>
        <time>2010-03-28T15:06:14Z</time>
      </trkpt>
      <trkpt lat="45.1064321" lon="7.6630246">
        <ele>241.9089355</ele>
        <time>2010-03-28T15:06:36Z</time>
      </trkpt>
      <trkpt lat="45.1058095" lon="7.6628208">
        <ele>241.9089355</ele>
        <time>2010-03-28T15:06:52Z</time>
      </trkpt>
      <trkpt lat="45.1055570" lon="7.6627482">
        <ele>242.8702393</ele>
        <time>2010-03-28T15:06:57Z</time>
      </trkpt>
      <trkpt lat="45.1054647" lon="7.6627238">
        <ele>242.3896484</ele>
        <time>2010-03-28T15:06:59Z</time>
      </trkpt>
      <trkpt lat="45.1046299" lon="7.6626001">
        <ele>242.3896484</ele>
        <time>2010-03-28T15:07:17Z</time>
      </trkpt>
      <trkpt lat="45.1045431" lon="7.6625677">
        <ele>243.3508301</ele>
        <time>2010-03-28T15:07:19Z</time>
      </trkpt>
      <trkpt lat="45.1039933" lon="7.6622843">
        <ele>243.3508301</ele>
        <time>2010-03-28T15:07:33Z</time>
      </trkpt>
      <trkpt lat="45.1028345" lon="7.6615989">
        <ele>243.3508301</ele>
        <time>2010-03-28T15:08:01Z</time>
      </trkpt>
      <trkpt lat="45.1026118" lon="7.6614708">
        <ele>242.8702393</ele>
        <time>2010-03-28T15:08:06Z</time>
      </trkpt>
      <trkpt lat="45.1018070" lon="7.6609558">
        <ele>242.3896484</ele>
        <time>2010-03-28T15:08:24Z</time>
      </trkpt>
      <trkpt lat="45.1015977" lon="7.6607172">
        <ele>242.3896484</ele>
        <time>2010-03-28T15:08:29Z</time>
      </trkpt>
      <trkpt lat="45.1007804" lon="7.6601954">
        <ele>241.9089355</ele>
        <time>2010-03-28T15:08:50Z</time>
      </trkpt>
      <trkpt lat="45.1006480" lon="7.6601538">
        <ele>241.9089355</ele>
        <time>2010-03-28T15:09:09Z</time>
      </trkpt>
      <trkpt lat="45.1006380" lon="7.6601451">
        <ele>242.3896484</ele>
        <time>2010-03-28T15:09:20Z</time>
      </trkpt>
      <trkpt lat="45.1001021" lon="7.6597545">
        <ele>242.8702393</ele>
        <time>2010-03-28T15:09:36Z</time>
      </trkpt>
      <trkpt lat="45.0992028" lon="7.6591937">
        <ele>243.3508301</ele>
        <time>2010-03-28T15:09:57Z</time>
      </trkpt>
      <trkpt lat="45.0986655" lon="7.6588618">
        <ele>243.3508301</ele>
        <time>2010-03-28T15:10:10Z</time>
      </trkpt>
      <trkpt lat="45.0983039" lon="7.6586185">
        <ele>244.3122559</ele>
        <time>2010-03-28T15:10:19Z</time>
      </trkpt>
      <trkpt lat="45.0976882" lon="7.6581359">
        <ele>245.2734375</ele>
        <time>2010-03-28T15:10:35Z</time>
      </trkpt>
      <trkpt lat="45.0974870" lon="7.6579807">
        <ele>244.7928467</ele>
        <time>2010-03-28T15:10:40Z</time>
      </trkpt>
      <trkpt lat="45.0971550" lon="7.6577150">
        <ele>244.3122559</ele>
        <time>2010-03-28T15:10:51Z</time>
      </trkpt>
      <trkpt lat="45.0970909" lon="7.6576705">
        <ele>244.3122559</ele>
        <time>2010-03-28T15:11:18Z</time>
      </trkpt>
      <trkpt lat="45.0966327" lon="7.6574015">
        <ele>245.2734375</ele>
        <time>2010-03-28T15:11:59Z</time>
      </trkpt>
      <trkpt lat="45.0959740" lon="7.6569462">
        <ele>245.2734375</ele>
        <time>2010-03-28T15:12:16Z</time>
      </trkpt>
      <trkpt lat="45.0957128" lon="7.6567838">
        <ele>245.2734375</ele>
        <time>2010-03-28T15:12:22Z</time>
      </trkpt>
      <trkpt lat="45.0954356" lon="7.6566040">
        <ele>244.3122559</ele>
        <time>2010-03-28T15:12:29Z</time>
      </trkpt>
      <trkpt lat="45.0953317" lon="7.6565106">
        <ele>244.7928467</ele>
        <time>2010-03-28T15:12:33Z</time>
      </trkpt>
      <trkpt lat="45.0951885" lon="7.6563671">
        <ele>244.3122559</ele>
        <time>2010-03-28T15:12:59Z</time>
      </trkpt>
      <trkpt lat="45.0946411" lon="7.6559833">
        <ele>243.3508301</ele>
        <time>2010-03-28T15:13:18Z</time>
      </trkpt>
      <trkpt lat="45.0946427" lon="7.6558147">
        <ele>244.3122559</ele>
        <time>2010-03-28T15:13:26Z</time>
      </trkpt>
      <trkpt lat="45.0948460" lon="7.6552433">
        <ele>244.3122559</ele>
        <time>2010-03-28T15:13:44Z</time>
      </trkpt>
      <trkpt lat="45.0949020" lon="7.6549791">
        <ele>244.7928467</ele>
        <time>2010-03-28T15:13:51Z</time>
      </trkpt>
      <trkpt lat="45.0949406" lon="7.6548711">
        <ele>245.7541504</ele>
        <time>2010-03-28T15:13:55Z</time>
      </trkpt>
      <trkpt lat="45.0949676" lon="7.6545365">
        <ele>245.2734375</ele>
        <time>2010-03-28T15:14:02Z</time>
      </trkpt>
      <trkpt lat="45.0950130" lon="7.6541350">
        <ele>246.2348633</ele>
        <time>2010-03-28T15:14:13Z</time>
      </trkpt>
    </trkseg>
  </trk>

</gpx>
